<?xml version="1.0" encoding="UTF-8" standalone="no" ?>
<gpx xmlns="http://www.topografix.com/GPX/1/1" xmlns:xsi="http://www.w3.org/2001/XMLSchema-instance" xsi:schemaLocation="http://www.topografix.com/GPX/1/1 http://www.topografix.com/GPX/1/1/gpx.xsd" version="1.1" creator="VisuGPX - https://www.visugpx.com">
  <metadata>
    <name>Forêt de Beaune</name>
    <desc><![CDATA[Au départ du moulin ...]]></desc>
  </metadata>
  <trk>
    <name><![CDATA[160404150855 on GPSies.com]]></name>
    <extensions>
      <line xmlns="http://www.topografix.com/GPX/gpx_style/0/2">
        <color>0000FF</color>
        <width>4</width>
      </line>
    </extensions>
    <trkseg>
      <trkpt lat="45.23383" lon="6.48046">
        <ele>1310.4</ele>
        <time>2016-04-04T15:09:12Z</time>
      </trkpt>
      <trkpt lat="45.23389" lon="6.48049">
        <ele>1311.9</ele>
        <time>2016-04-04T15:09:16Z</time>
      </trkpt>
      <trkpt lat="45.23393" lon="6.4805">
        <ele>1312.9</ele>
        <time>2016-04-04T15:09:20Z</time>
      </trkpt>
      <trkpt lat="45.23397" lon="6.48051">
        <ele>1313.7</ele>
        <time>2016-04-04T15:09:24Z</time>
      </trkpt>
      <trkpt lat="45.23402" lon="6.48051">
        <ele>1314.6</ele>
        <time>2016-04-04T15:09:28Z</time>
      </trkpt>
      <trkpt lat="45.23407" lon="6.48045">
        <ele>1314.4</ele>
        <time>2016-04-04T15:09:32Z</time>
      </trkpt>
      <trkpt lat="45.23413" lon="6.48036">
        <ele>1313.8</ele>
        <time>2016-04-04T15:09:36Z</time>
      </trkpt>
      <trkpt lat="45.23419" lon="6.48028">
        <ele>1313.9</ele>
        <time>2016-04-04T15:09:40Z</time>
      </trkpt>
      <trkpt lat="45.23427" lon="6.48023">
        <ele>1314.8</ele>
        <time>2016-04-04T15:09:44Z</time>
      </trkpt>
      <trkpt lat="45.23435" lon="6.48019">
        <ele>1316.2</ele>
        <time>2016-04-04T15:09:48Z</time>
      </trkpt>
      <trkpt lat="45.23442" lon="6.48014">
        <ele>1317.3</ele>
        <time>2016-04-04T15:09:52Z</time>
      </trkpt>
      <trkpt lat="45.2345" lon="6.4801">
        <ele>1318.4</ele>
        <time>2016-04-04T15:09:56Z</time>
      </trkpt>
      <trkpt lat="45.23458" lon="6.48006">
        <ele>1319.6</ele>
        <time>2016-04-04T15:10:00Z</time>
      </trkpt>
      <trkpt lat="45.23466" lon="6.48002">
        <ele>1320.8</ele>
        <time>2016-04-04T15:10:04Z</time>
      </trkpt>
      <trkpt lat="45.23473" lon="6.47995">
        <ele>1320.9</ele>
        <time>2016-04-04T15:10:08Z</time>
      </trkpt>
      <trkpt lat="45.23481" lon="6.47987">
        <ele>1320.8</ele>
        <time>2016-04-04T15:10:12Z</time>
      </trkpt>
      <trkpt lat="45.23489" lon="6.4798">
        <ele>1320.6</ele>
        <time>2016-04-04T15:10:16Z</time>
      </trkpt>
      <trkpt lat="45.23498" lon="6.47972">
        <ele>1320.4</ele>
        <time>2016-04-04T15:10:20Z</time>
      </trkpt>
      <trkpt lat="45.23506" lon="6.47964">
        <ele>1319.7</ele>
        <time>2016-04-04T15:10:24Z</time>
      </trkpt>
      <trkpt lat="45.23514" lon="6.47955">
        <ele>1318.8</ele>
        <time>2016-04-04T15:10:28Z</time>
      </trkpt>
      <trkpt lat="45.23523" lon="6.47948">
        <ele>1318.5</ele>
        <time>2016-04-04T15:10:32Z</time>
      </trkpt>
      <trkpt lat="45.23532" lon="6.47943">
        <ele>1318.5</ele>
        <time>2016-04-04T15:10:36Z</time>
      </trkpt>
      <trkpt lat="45.23542" lon="6.47937">
        <ele>1318.8</ele>
        <time>2016-04-04T15:10:40Z</time>
      </trkpt>
      <trkpt lat="45.23552" lon="6.47932">
        <ele>1319.5</ele>
        <time>2016-04-04T15:10:44Z</time>
      </trkpt>
      <trkpt lat="45.23562" lon="6.4793">
        <ele>1320.7</ele>
        <time>2016-04-04T15:10:48Z</time>
      </trkpt>
      <trkpt lat="45.23573" lon="6.47928">
        <ele>1322.4</ele>
        <time>2016-04-04T15:10:52Z</time>
      </trkpt>
      <trkpt lat="45.23585" lon="6.47928">
        <ele>1324.5</ele>
        <time>2016-04-04T15:10:56Z</time>
      </trkpt>
      <trkpt lat="45.23596" lon="6.47929">
        <ele>1325.7</ele>
        <time>2016-04-04T15:11:00Z</time>
      </trkpt>
      <trkpt lat="45.23606" lon="6.47929">
        <ele>1327</ele>
        <time>2016-04-04T15:11:04Z</time>
      </trkpt>
      <trkpt lat="45.23617" lon="6.47929">
        <ele>1328.2</ele>
        <time>2016-04-04T15:11:08Z</time>
      </trkpt>
      <trkpt lat="45.23628" lon="6.47929">
        <ele>1329.3</ele>
        <time>2016-04-04T15:11:12Z</time>
      </trkpt>
      <trkpt lat="45.23639" lon="6.47929">
        <ele>1330.5</ele>
        <time>2016-04-04T15:11:16Z</time>
      </trkpt>
      <trkpt lat="45.2365" lon="6.47928">
        <ele>1331.3</ele>
        <time>2016-04-04T15:11:20Z</time>
      </trkpt>
      <trkpt lat="45.23661" lon="6.47928">
        <ele>1332.5</ele>
        <time>2016-04-04T15:11:24Z</time>
      </trkpt>
      <trkpt lat="45.23672" lon="6.47927">
        <ele>1333.8</ele>
        <time>2016-04-04T15:11:28Z</time>
      </trkpt>
      <trkpt lat="45.23683" lon="6.47927">
        <ele>1335.7</ele>
        <time>2016-04-04T15:11:32Z</time>
      </trkpt>
      <trkpt lat="45.23694" lon="6.47927">
        <ele>1337.6</ele>
        <time>2016-04-04T15:11:36Z</time>
      </trkpt>
      <trkpt lat="45.23705" lon="6.47924">
        <ele>1338.8</ele>
        <time>2016-04-04T15:11:40Z</time>
      </trkpt>
      <trkpt lat="45.23714" lon="6.47919">
        <ele>1339.1</ele>
        <time>2016-04-04T15:11:44Z</time>
      </trkpt>
      <trkpt lat="45.23722" lon="6.47914">
        <ele>1339.5</ele>
        <time>2016-04-04T15:11:48Z</time>
      </trkpt>
      <trkpt lat="45.23731" lon="6.47909">
        <ele>1340.4</ele>
        <time>2016-04-04T15:11:52Z</time>
      </trkpt>
      <trkpt lat="45.23737" lon="6.47904">
        <ele>1340.5</ele>
        <time>2016-04-04T15:11:56Z</time>
      </trkpt>
      <trkpt lat="45.23742" lon="6.47891">
        <ele>1339.7</ele>
        <time>2016-04-04T15:13:00Z</time>
      </trkpt>
      <trkpt lat="45.23752" lon="6.47886">
        <ele>1341.2</ele>
        <time>2016-04-04T15:13:04Z</time>
      </trkpt>
      <trkpt lat="45.2376" lon="6.47877">
        <ele>1342.1</ele>
        <time>2016-04-04T15:13:08Z</time>
      </trkpt>
      <trkpt lat="45.23765" lon="6.4787">
        <ele>1342.7</ele>
        <time>2016-04-04T15:13:12Z</time>
      </trkpt>
      <trkpt lat="45.2377" lon="6.47862">
        <ele>1342.8</ele>
        <time>2016-04-04T15:13:16Z</time>
      </trkpt>
      <trkpt lat="45.23772" lon="6.47851">
        <ele>1341.6</ele>
        <time>2016-04-04T15:13:20Z</time>
      </trkpt>
      <trkpt lat="45.23775" lon="6.47838">
        <ele>1340.7</ele>
        <time>2016-04-04T15:13:24Z</time>
      </trkpt>
      <trkpt lat="45.23781" lon="6.47829">
        <ele>1340.4</ele>
        <time>2016-04-04T15:13:28Z</time>
      </trkpt>
      <trkpt lat="45.23787" lon="6.4782">
        <ele>1340.2</ele>
        <time>2016-04-04T15:13:32Z</time>
      </trkpt>
      <trkpt lat="45.23794" lon="6.47811">
        <ele>1340</ele>
        <time>2016-04-04T15:13:36Z</time>
      </trkpt>
      <trkpt lat="45.23803" lon="6.47805">
        <ele>1341.2</ele>
        <time>2016-04-04T15:13:40Z</time>
      </trkpt>
      <trkpt lat="45.2381" lon="6.47798">
        <ele>1342.1</ele>
        <time>2016-04-04T15:13:44Z</time>
      </trkpt>
      <trkpt lat="45.23819" lon="6.47791">
        <ele>1343.1</ele>
        <time>2016-04-04T15:13:48Z</time>
      </trkpt>
      <trkpt lat="45.23828" lon="6.47784">
        <ele>1344.2</ele>
        <time>2016-04-04T15:13:52Z</time>
      </trkpt>
      <trkpt lat="45.23837" lon="6.47778">
        <ele>1345.4</ele>
        <time>2016-04-04T15:13:56Z</time>
      </trkpt>
      <trkpt lat="45.23845" lon="6.4777">
        <ele>1345.1</ele>
        <time>2016-04-04T15:14:00Z</time>
      </trkpt>
      <trkpt lat="45.2385" lon="6.47762">
        <ele>1344.3</ele>
        <time>2016-04-04T15:14:04Z</time>
      </trkpt>
      <trkpt lat="45.23858" lon="6.47752">
        <ele>1343.7</ele>
        <time>2016-04-04T15:14:08Z</time>
      </trkpt>
      <trkpt lat="45.23874" lon="6.47739">
        <ele>1343.2</ele>
        <time>2016-04-04T15:14:12Z</time>
      </trkpt>
      <trkpt lat="45.23901" lon="6.47718">
        <ele>1342.8</ele>
        <time>2016-04-04T15:14:16Z</time>
      </trkpt>
      <trkpt lat="45.23932" lon="6.47695">
        <ele>1342.1</ele>
        <time>2016-04-04T15:14:20Z</time>
      </trkpt>
      <trkpt lat="45.23968" lon="6.47671">
        <ele>1342</ele>
        <time>2016-04-04T15:14:24Z</time>
      </trkpt>
      <trkpt lat="45.24002" lon="6.47645">
        <ele>1339.5</ele>
        <time>2016-04-04T15:14:28Z</time>
      </trkpt>
      <trkpt lat="45.24041" lon="6.47619">
        <ele>1338.4</ele>
        <time>2016-04-04T15:14:32Z</time>
      </trkpt>
      <trkpt lat="45.24074" lon="6.47598">
        <ele>1337.8</ele>
        <time>2016-04-04T15:14:36Z</time>
      </trkpt>
      <trkpt lat="45.24094" lon="6.47586">
        <ele>1337</ele>
        <time>2016-04-04T15:14:40Z</time>
      </trkpt>
      <trkpt lat="45.24107" lon="6.47574">
        <ele>1334.8</ele>
        <time>2016-04-04T15:14:44Z</time>
      </trkpt>
      <trkpt lat="45.2412" lon="6.47572">
        <ele>1335.5</ele>
        <time>2016-04-04T15:14:48Z</time>
      </trkpt>
      <trkpt lat="45.24138" lon="6.47572">
        <ele>1337.6</ele>
        <time>2016-04-04T15:14:52Z</time>
      </trkpt>
      <trkpt lat="45.2416" lon="6.47571">
        <ele>1339.5</ele>
        <time>2016-04-04T15:14:56Z</time>
      </trkpt>
      <trkpt lat="45.24179" lon="6.47567">
        <ele>1339.7</ele>
        <time>2016-04-04T15:15:00Z</time>
      </trkpt>
      <trkpt lat="45.24199" lon="6.47559">
        <ele>1338.2</ele>
        <time>2016-04-04T15:15:04Z</time>
      </trkpt>
      <trkpt lat="45.24223" lon="6.47552">
        <ele>1337.6</ele>
        <time>2016-04-04T15:15:08Z</time>
      </trkpt>
      <trkpt lat="45.24249" lon="6.47546">
        <ele>1337.5</ele>
        <time>2016-04-04T15:15:12Z</time>
      </trkpt>
      <trkpt lat="45.24274" lon="6.47527">
        <ele>1337.9</ele>
        <time>2016-04-04T15:15:16Z</time>
      </trkpt>
      <trkpt lat="45.24296" lon="6.47503">
        <ele>1335.5</ele>
        <time>2016-04-04T15:15:20Z</time>
      </trkpt>
      <trkpt lat="45.24314" lon="6.4749">
        <ele>1337.8</ele>
        <time>2016-04-04T15:15:24Z</time>
      </trkpt>
      <trkpt lat="45.24323" lon="6.47474">
        <ele>1337</ele>
        <time>2016-04-04T15:15:28Z</time>
      </trkpt>
      <trkpt lat="45.24334" lon="6.47459">
        <ele>1337</ele>
        <time>2016-04-04T15:15:32Z</time>
      </trkpt>
      <trkpt lat="45.24345" lon="6.47439">
        <ele>1335.8</ele>
        <time>2016-04-04T15:15:36Z</time>
      </trkpt>
      <trkpt lat="45.24353" lon="6.47422">
        <ele>1334.3</ele>
        <time>2016-04-04T15:15:40Z</time>
      </trkpt>
      <trkpt lat="45.24354" lon="6.47414">
        <ele>1333.2</ele>
        <time>2016-04-04T15:15:44Z</time>
      </trkpt>
      <trkpt lat="45.24355" lon="6.474">
        <ele>1331.2</ele>
        <time>2016-04-04T15:18:20Z</time>
      </trkpt>
      <trkpt lat="45.24359" lon="6.47388">
        <ele>1330.8</ele>
        <time>2016-04-04T15:18:24Z</time>
      </trkpt>
      <trkpt lat="45.24366" lon="6.47372">
        <ele>1330.3</ele>
        <time>2016-04-04T15:18:28Z</time>
      </trkpt>
      <trkpt lat="45.24372" lon="6.47357">
        <ele>1329.5</ele>
        <time>2016-04-04T15:18:32Z</time>
      </trkpt>
      <trkpt lat="45.24378" lon="6.47344">
        <ele>1329.1</ele>
        <time>2016-04-04T15:18:36Z</time>
      </trkpt>
      <trkpt lat="45.24386" lon="6.47332">
        <ele>1329.1</ele>
        <time>2016-04-04T15:18:40Z</time>
      </trkpt>
      <trkpt lat="45.24393" lon="6.47324">
        <ele>1329.3</ele>
        <time>2016-04-04T15:18:44Z</time>
      </trkpt>
      <trkpt lat="45.24401" lon="6.47318">
        <ele>1330.4</ele>
        <time>2016-04-04T15:18:48Z</time>
      </trkpt>
      <trkpt lat="45.2441" lon="6.47314">
        <ele>1332</ele>
        <time>2016-04-04T15:18:52Z</time>
      </trkpt>
      <trkpt lat="45.24419" lon="6.47309">
        <ele>1333.4</ele>
        <time>2016-04-04T15:18:56Z</time>
      </trkpt>
      <trkpt lat="45.24429" lon="6.47301">
        <ele>1334.1</ele>
        <time>2016-04-04T15:19:00Z</time>
      </trkpt>
      <trkpt lat="45.24437" lon="6.47292">
        <ele>1334.3</ele>
        <time>2016-04-04T15:19:04Z</time>
      </trkpt>
      <trkpt lat="45.24443" lon="6.47284">
        <ele>1334.6</ele>
        <time>2016-04-04T15:19:08Z</time>
      </trkpt>
      <trkpt lat="45.2445" lon="6.47276">
        <ele>1334.9</ele>
        <time>2016-04-04T15:19:12Z</time>
      </trkpt>
      <trkpt lat="45.2446" lon="6.47261">
        <ele>1335.5</ele>
        <time>2016-04-04T15:19:16Z</time>
      </trkpt>
      <trkpt lat="45.24471" lon="6.47244">
        <ele>1335.8</ele>
        <time>2016-04-04T15:19:20Z</time>
      </trkpt>
      <trkpt lat="45.24485" lon="6.47223">
        <ele>1335.6</ele>
        <time>2016-04-04T15:19:24Z</time>
      </trkpt>
      <trkpt lat="45.24496" lon="6.4721">
        <ele>1336.2</ele>
        <time>2016-04-04T15:19:28Z</time>
      </trkpt>
      <trkpt lat="45.24505" lon="6.47199">
        <ele>1335.9</ele>
        <time>2016-04-04T15:19:32Z</time>
      </trkpt>
      <trkpt lat="45.24512" lon="6.47184">
        <ele>1334.2</ele>
        <time>2016-04-04T15:19:36Z</time>
      </trkpt>
      <trkpt lat="45.24525" lon="6.47173">
        <ele>1333.7</ele>
        <time>2016-04-04T15:19:40Z</time>
      </trkpt>
      <trkpt lat="45.2454" lon="6.47167">
        <ele>1334.5</ele>
        <time>2016-04-04T15:19:44Z</time>
      </trkpt>
      <trkpt lat="45.24557" lon="6.47157">
        <ele>1333.6</ele>
        <time>2016-04-04T15:19:48Z</time>
      </trkpt>
      <trkpt lat="45.24579" lon="6.47154">
        <ele>1335.4</ele>
        <time>2016-04-04T15:19:52Z</time>
      </trkpt>
      <trkpt lat="45.24603" lon="6.47154">
        <ele>1333.9</ele>
        <time>2016-04-04T15:19:56Z</time>
      </trkpt>
      <trkpt lat="45.24635" lon="6.4716">
        <ele>1332.5</ele>
        <time>2016-04-04T15:20:00Z</time>
      </trkpt>
      <trkpt lat="45.24663" lon="6.47181">
        <ele>1334.2</ele>
        <time>2016-04-04T15:20:04Z</time>
      </trkpt>
      <trkpt lat="45.24684" lon="6.47203">
        <ele>1334.5</ele>
        <time>2016-04-04T15:20:08Z</time>
      </trkpt>
      <trkpt lat="45.24726" lon="6.47211">
        <ele>1327.9</ele>
        <time>2016-04-04T15:20:12Z</time>
      </trkpt>
      <trkpt lat="45.24768" lon="6.47225">
        <ele>1325</ele>
        <time>2016-04-04T15:20:16Z</time>
      </trkpt>
      <trkpt lat="45.24793" lon="6.47231">
        <ele>1324.9</ele>
        <time>2016-04-04T15:20:20Z</time>
      </trkpt>
      <trkpt lat="45.24806" lon="6.47239">
        <ele>1325.3</ele>
        <time>2016-04-04T15:20:24Z</time>
      </trkpt>
      <trkpt lat="45.24818" lon="6.47247">
        <ele>1325.7</ele>
        <time>2016-04-04T15:20:28Z</time>
      </trkpt>
      <trkpt lat="45.24827" lon="6.47253">
        <ele>1326.1</ele>
        <time>2016-04-04T15:20:32Z</time>
      </trkpt>
      <trkpt lat="45.24833" lon="6.47255">
        <ele>1326.1</ele>
        <time>2016-04-04T15:20:36Z</time>
      </trkpt>
      <trkpt lat="45.24843" lon="6.47261">
        <ele>1327.6</ele>
        <time>2016-04-04T15:20:40Z</time>
      </trkpt>
      <trkpt lat="45.24854" lon="6.47262">
        <ele>1328.4</ele>
        <time>2016-04-04T15:20:44Z</time>
      </trkpt>
      <trkpt lat="45.24864" lon="6.47257">
        <ele>1327.7</ele>
        <time>2016-04-04T15:20:48Z</time>
      </trkpt>
      <trkpt lat="45.24876" lon="6.47254">
        <ele>1327.9</ele>
        <time>2016-04-04T15:20:52Z</time>
      </trkpt>
      <trkpt lat="45.24881" lon="6.47252">
        <ele>1327.7</ele>
        <time>2016-04-04T15:20:56Z</time>
      </trkpt>
      <trkpt lat="45.24886" lon="6.47246">
        <ele>1327.1</ele>
        <time>2016-04-04T15:21:00Z</time>
      </trkpt>
      <trkpt lat="45.24891" lon="6.47236">
        <ele>1326.4</ele>
        <time>2016-04-04T15:21:04Z</time>
      </trkpt>
      <trkpt lat="45.24897" lon="6.47225">
        <ele>1325.6</ele>
        <time>2016-04-04T15:21:08Z</time>
      </trkpt>
      <trkpt lat="45.24906" lon="6.47218">
        <ele>1325.4</ele>
        <time>2016-04-04T15:21:12Z</time>
      </trkpt>
      <trkpt lat="45.24919" lon="6.47215">
        <ele>1325.9</ele>
        <time>2016-04-04T15:21:16Z</time>
      </trkpt>
      <trkpt lat="45.24923" lon="6.47209">
        <ele>1325.9</ele>
        <time>2016-04-04T15:21:20Z</time>
      </trkpt>
      <trkpt lat="45.24931" lon="6.47203">
        <ele>1326.4</ele>
        <time>2016-04-04T15:21:24Z</time>
      </trkpt>
      <trkpt lat="45.2494" lon="6.47195">
        <ele>1326.8</ele>
        <time>2016-04-04T15:21:28Z</time>
      </trkpt>
      <trkpt lat="45.24947" lon="6.47186">
        <ele>1326.8</ele>
        <time>2016-04-04T15:21:32Z</time>
      </trkpt>
      <trkpt lat="45.24953" lon="6.47178">
        <ele>1326.9</ele>
        <time>2016-04-04T15:21:36Z</time>
      </trkpt>
      <trkpt lat="45.24964" lon="6.47173">
        <ele>1327.9</ele>
        <time>2016-04-04T15:21:40Z</time>
      </trkpt>
      <trkpt lat="45.24972" lon="6.47167">
        <ele>1328.3</ele>
        <time>2016-04-04T15:21:44Z</time>
      </trkpt>
      <trkpt lat="45.24981" lon="6.47164">
        <ele>1329.2</ele>
        <time>2016-04-04T15:21:48Z</time>
      </trkpt>
      <trkpt lat="45.24988" lon="6.47156">
        <ele>1329.4</ele>
        <time>2016-04-04T15:21:52Z</time>
      </trkpt>
      <trkpt lat="45.24998" lon="6.47148">
        <ele>1330</ele>
        <time>2016-04-04T15:21:56Z</time>
      </trkpt>
      <trkpt lat="45.25008" lon="6.47141">
        <ele>1329.7</ele>
        <time>2016-04-04T15:22:00Z</time>
      </trkpt>
      <trkpt lat="45.25015" lon="6.47135">
        <ele>1329.3</ele>
        <time>2016-04-04T15:22:04Z</time>
      </trkpt>
      <trkpt lat="45.25026" lon="6.47128">
        <ele>1328.8</ele>
        <time>2016-04-04T15:22:08Z</time>
      </trkpt>
      <trkpt lat="45.25036" lon="6.47126">
        <ele>1328.8</ele>
        <time>2016-04-04T15:22:12Z</time>
      </trkpt>
      <trkpt lat="45.2504" lon="6.4714">
        <ele>1330.4</ele>
        <time>2016-04-04T15:22:24Z</time>
      </trkpt>
      <trkpt lat="45.25043" lon="6.47155">
        <ele>1332.2</ele>
        <time>2016-04-04T15:22:28Z</time>
      </trkpt>
      <trkpt lat="45.25052" lon="6.47162">
        <ele>1333.4</ele>
        <time>2016-04-04T15:22:32Z</time>
      </trkpt>
      <trkpt lat="45.25057" lon="6.47174">
        <ele>1334.9</ele>
        <time>2016-04-04T15:22:36Z</time>
      </trkpt>
      <trkpt lat="45.25059" lon="6.47182">
        <ele>1335.8</ele>
        <time>2016-04-04T15:22:40Z</time>
      </trkpt>
      <trkpt lat="45.25062" lon="6.47187">
        <ele>1336.5</ele>
        <time>2016-04-04T15:22:44Z</time>
      </trkpt>
      <trkpt lat="45.25066" lon="6.47187">
        <ele>1336.7</ele>
        <time>2016-04-04T15:22:48Z</time>
      </trkpt>
      <trkpt lat="45.25066" lon="6.47193">
        <ele>1337.3</ele>
        <time>2016-04-04T15:22:52Z</time>
      </trkpt>
      <trkpt lat="45.2507" lon="6.472">
        <ele>1338.3</ele>
        <time>2016-04-04T15:22:56Z</time>
      </trkpt>
      <trkpt lat="45.25069" lon="6.4721">
        <ele>1339.4</ele>
        <time>2016-04-04T15:23:00Z</time>
      </trkpt>
      <trkpt lat="45.25079" lon="6.47221">
        <ele>1341.3</ele>
        <time>2016-04-04T15:23:04Z</time>
      </trkpt>
      <trkpt lat="45.25074" lon="6.47227">
        <ele>1341.6</ele>
        <time>2016-04-04T15:23:08Z</time>
      </trkpt>
      <trkpt lat="45.25067" lon="6.4723">
        <ele>1341.6</ele>
        <time>2016-04-04T15:23:12Z</time>
      </trkpt>
      <trkpt lat="45.25062" lon="6.47236">
        <ele>1341.9</ele>
        <time>2016-04-04T15:23:16Z</time>
      </trkpt>
      <trkpt lat="45.25059" lon="6.47245">
        <ele>1342.7</ele>
        <time>2016-04-04T15:23:20Z</time>
      </trkpt>
      <trkpt lat="45.25055" lon="6.4725">
        <ele>1343</ele>
        <time>2016-04-04T15:23:24Z</time>
      </trkpt>
      <trkpt lat="45.2505" lon="6.47255">
        <ele>1343.2</ele>
        <time>2016-04-04T15:23:28Z</time>
      </trkpt>
      <trkpt lat="45.25048" lon="6.47261">
        <ele>1343.6</ele>
        <time>2016-04-04T15:23:32Z</time>
      </trkpt>
      <trkpt lat="45.25047" lon="6.47271">
        <ele>1344.7</ele>
        <time>2016-04-04T15:23:36Z</time>
      </trkpt>
      <trkpt lat="45.25041" lon="6.47281">
        <ele>1345.5</ele>
        <time>2016-04-04T15:23:40Z</time>
      </trkpt>
      <trkpt lat="45.25039" lon="6.47291">
        <ele>1346.5</ele>
        <time>2016-04-04T15:23:44Z</time>
      </trkpt>
      <trkpt lat="45.25037" lon="6.47302">
        <ele>1347.7</ele>
        <time>2016-04-04T15:23:48Z</time>
      </trkpt>
      <trkpt lat="45.25036" lon="6.47311">
        <ele>1348.5</ele>
        <time>2016-04-04T15:23:52Z</time>
      </trkpt>
      <trkpt lat="45.25029" lon="6.47321">
        <ele>1349.3</ele>
        <time>2016-04-04T15:23:56Z</time>
      </trkpt>
      <trkpt lat="45.25032" lon="6.47325">
        <ele>1350</ele>
        <time>2016-04-04T15:24:00Z</time>
      </trkpt>
      <trkpt lat="45.25027" lon="6.47333">
        <ele>1350.6</ele>
        <time>2016-04-04T15:24:04Z</time>
      </trkpt>
      <trkpt lat="45.25022" lon="6.47344">
        <ele>1352.8</ele>
        <time>2016-04-04T15:24:08Z</time>
      </trkpt>
      <trkpt lat="45.25017" lon="6.47348">
        <ele>1353.4</ele>
        <time>2016-04-04T15:24:12Z</time>
      </trkpt>
      <trkpt lat="45.25009" lon="6.47351">
        <ele>1353.8</ele>
        <time>2016-04-04T15:24:16Z</time>
      </trkpt>
      <trkpt lat="45.24998" lon="6.47355">
        <ele>1354.1</ele>
        <time>2016-04-04T15:24:20Z</time>
      </trkpt>
      <trkpt lat="45.24988" lon="6.47355">
        <ele>1353.4</ele>
        <time>2016-04-04T15:24:24Z</time>
      </trkpt>
      <trkpt lat="45.24976" lon="6.47358">
        <ele>1353.1</ele>
        <time>2016-04-04T15:24:28Z</time>
      </trkpt>
      <trkpt lat="45.24969" lon="6.47363">
        <ele>1353.7</ele>
        <time>2016-04-04T15:24:32Z</time>
      </trkpt>
      <trkpt lat="45.24963" lon="6.47363">
        <ele>1353.3</ele>
        <time>2016-04-04T15:24:36Z</time>
      </trkpt>
      <trkpt lat="45.24958" lon="6.47366">
        <ele>1353.7</ele>
        <time>2016-04-04T15:24:40Z</time>
      </trkpt>
      <trkpt lat="45.24952" lon="6.47369">
        <ele>1354.1</ele>
        <time>2016-04-04T15:24:44Z</time>
      </trkpt>
      <trkpt lat="45.24943" lon="6.47375">
        <ele>1355.1</ele>
        <time>2016-04-04T15:24:48Z</time>
      </trkpt>
      <trkpt lat="45.24936" lon="6.47378">
        <ele>1355.3</ele>
        <time>2016-04-04T15:24:52Z</time>
      </trkpt>
      <trkpt lat="45.24931" lon="6.47383">
        <ele>1356.1</ele>
        <time>2016-04-04T15:24:56Z</time>
      </trkpt>
      <trkpt lat="45.24924" lon="6.47386">
        <ele>1356.5</ele>
        <time>2016-04-04T15:25:00Z</time>
      </trkpt>
      <trkpt lat="45.24914" lon="6.47391">
        <ele>1357.4</ele>
        <time>2016-04-04T15:25:04Z</time>
      </trkpt>
      <trkpt lat="45.24903" lon="6.47396">
        <ele>1358.7</ele>
        <time>2016-04-04T15:25:08Z</time>
      </trkpt>
      <trkpt lat="45.24898" lon="6.47403">
        <ele>1360.7</ele>
        <time>2016-04-04T15:25:12Z</time>
      </trkpt>
      <trkpt lat="45.24889" lon="6.47407">
        <ele>1361.9</ele>
        <time>2016-04-04T15:25:16Z</time>
      </trkpt>
      <trkpt lat="45.24876" lon="6.47414">
        <ele>1364.3</ele>
        <time>2016-04-04T15:26:00Z</time>
      </trkpt>
      <trkpt lat="45.24872" lon="6.47417">
        <ele>1365.3</ele>
        <time>2016-04-04T15:26:04Z</time>
      </trkpt>
      <trkpt lat="45.24866" lon="6.47417">
        <ele>1365.3</ele>
        <time>2016-04-04T15:26:08Z</time>
      </trkpt>
      <trkpt lat="45.24859" lon="6.47422">
        <ele>1367.4</ele>
        <time>2016-04-04T15:26:12Z</time>
      </trkpt>
      <trkpt lat="45.24852" lon="6.47423">
        <ele>1368</ele>
        <time>2016-04-04T15:26:16Z</time>
      </trkpt>
      <trkpt lat="45.24843" lon="6.47425">
        <ele>1368.6</ele>
        <time>2016-04-04T15:26:20Z</time>
      </trkpt>
      <trkpt lat="45.24834" lon="6.47426">
        <ele>1369.5</ele>
        <time>2016-04-04T15:26:24Z</time>
      </trkpt>
      <trkpt lat="45.24826" lon="6.47432">
        <ele>1372</ele>
        <time>2016-04-04T15:26:28Z</time>
      </trkpt>
      <trkpt lat="45.24816" lon="6.47434">
        <ele>1373.6</ele>
        <time>2016-04-04T15:26:32Z</time>
      </trkpt>
      <trkpt lat="45.24805" lon="6.47436">
        <ele>1375</ele>
        <time>2016-04-04T15:26:36Z</time>
      </trkpt>
      <trkpt lat="45.24798" lon="6.47433">
        <ele>1374.5</ele>
        <time>2016-04-04T15:26:40Z</time>
      </trkpt>
      <trkpt lat="45.24792" lon="6.47431">
        <ele>1374</ele>
        <time>2016-04-04T15:26:44Z</time>
      </trkpt>
      <trkpt lat="45.24788" lon="6.47426">
        <ele>1372.9</ele>
        <time>2016-04-04T15:26:48Z</time>
      </trkpt>
      <trkpt lat="45.24781" lon="6.47422">
        <ele>1372.2</ele>
        <time>2016-04-04T15:26:52Z</time>
      </trkpt>
      <trkpt lat="45.24771" lon="6.47415">
        <ele>1370.9</ele>
        <time>2016-04-04T15:26:56Z</time>
      </trkpt>
      <trkpt lat="45.24761" lon="6.47414">
        <ele>1371.5</ele>
        <time>2016-04-04T15:27:00Z</time>
      </trkpt>
      <trkpt lat="45.24754" lon="6.47412">
        <ele>1371.5</ele>
        <time>2016-04-04T15:27:04Z</time>
      </trkpt>
      <trkpt lat="45.24744" lon="6.47409">
        <ele>1371.2</ele>
        <time>2016-04-04T15:27:08Z</time>
      </trkpt>
      <trkpt lat="45.24729" lon="6.47411">
        <ele>1371.6</ele>
        <time>2016-04-04T15:27:12Z</time>
      </trkpt>
      <trkpt lat="45.24721" lon="6.47415">
        <ele>1372.4</ele>
        <time>2016-04-04T15:27:16Z</time>
      </trkpt>
      <trkpt lat="45.24717" lon="6.47422">
        <ele>1373.9</ele>
        <time>2016-04-04T15:27:20Z</time>
      </trkpt>
      <trkpt lat="45.24709" lon="6.47428">
        <ele>1375.4</ele>
        <time>2016-04-04T15:27:24Z</time>
      </trkpt>
      <trkpt lat="45.24701" lon="6.47436">
        <ele>1377.1</ele>
        <time>2016-04-04T15:27:28Z</time>
      </trkpt>
      <trkpt lat="45.24694" lon="6.47445">
        <ele>1379</ele>
        <time>2016-04-04T15:27:32Z</time>
      </trkpt>
      <trkpt lat="45.24687" lon="6.47453">
        <ele>1380.5</ele>
        <time>2016-04-04T15:27:36Z</time>
      </trkpt>
      <trkpt lat="45.24679" lon="6.4746">
        <ele>1381.5</ele>
        <time>2016-04-04T15:27:40Z</time>
      </trkpt>
      <trkpt lat="45.2467" lon="6.47464">
        <ele>1381.9</ele>
        <time>2016-04-04T15:27:44Z</time>
      </trkpt>
      <trkpt lat="45.24661" lon="6.47469">
        <ele>1382.4</ele>
        <time>2016-04-04T15:27:48Z</time>
      </trkpt>
      <trkpt lat="45.24649" lon="6.47469">
        <ele>1381.7</ele>
        <time>2016-04-04T15:27:52Z</time>
      </trkpt>
      <trkpt lat="45.24638" lon="6.47468">
        <ele>1380.8</ele>
        <time>2016-04-04T15:27:56Z</time>
      </trkpt>
      <trkpt lat="45.24627" lon="6.47466">
        <ele>1380</ele>
        <time>2016-04-04T15:28:00Z</time>
      </trkpt>
      <trkpt lat="45.2462" lon="6.47468">
        <ele>1379.9</ele>
        <time>2016-04-04T15:28:04Z</time>
      </trkpt>
      <trkpt lat="45.24611" lon="6.4747">
        <ele>1379.7</ele>
        <time>2016-04-04T15:28:08Z</time>
      </trkpt>
      <trkpt lat="45.24608" lon="6.47472">
        <ele>1379.8</ele>
        <time>2016-04-04T15:28:12Z</time>
      </trkpt>
      <trkpt lat="45.24604" lon="6.47477">
        <ele>1380.4</ele>
        <time>2016-04-04T15:28:16Z</time>
      </trkpt>
      <trkpt lat="45.246" lon="6.47487">
        <ele>1381.5</ele>
        <time>2016-04-04T15:28:20Z</time>
      </trkpt>
      <trkpt lat="45.24595" lon="6.47495">
        <ele>1382.3</ele>
        <time>2016-04-04T15:28:24Z</time>
      </trkpt>
      <trkpt lat="45.24592" lon="6.47501">
        <ele>1383</ele>
        <time>2016-04-04T15:28:28Z</time>
      </trkpt>
      <trkpt lat="45.24587" lon="6.47507">
        <ele>1383.6</ele>
        <time>2016-04-04T15:28:32Z</time>
      </trkpt>
      <trkpt lat="45.24583" lon="6.47515">
        <ele>1384.6</ele>
        <time>2016-04-04T15:28:36Z</time>
      </trkpt>
      <trkpt lat="45.2458" lon="6.47523">
        <ele>1385.9</ele>
        <time>2016-04-04T15:28:40Z</time>
      </trkpt>
      <trkpt lat="45.2458" lon="6.47532">
        <ele>1387.4</ele>
        <time>2016-04-04T15:28:44Z</time>
      </trkpt>
      <trkpt lat="45.24575" lon="6.47543">
        <ele>1389.1</ele>
        <time>2016-04-04T15:28:48Z</time>
      </trkpt>
      <trkpt lat="45.24573" lon="6.4755">
        <ele>1390.2</ele>
        <time>2016-04-04T15:28:52Z</time>
      </trkpt>
      <trkpt lat="45.24571" lon="6.47563">
        <ele>1392.4</ele>
        <time>2016-04-04T15:28:56Z</time>
      </trkpt>
      <trkpt lat="45.24568" lon="6.47572">
        <ele>1393.8</ele>
        <time>2016-04-04T15:29:00Z</time>
      </trkpt>
      <trkpt lat="45.24565" lon="6.47582">
        <ele>1395.3</ele>
        <time>2016-04-04T15:29:04Z</time>
      </trkpt>
      <trkpt lat="45.24563" lon="6.4759">
        <ele>1396.9</ele>
        <time>2016-04-04T15:29:08Z</time>
      </trkpt>
      <trkpt lat="45.2456" lon="6.47598">
        <ele>1398.4</ele>
        <time>2016-04-04T15:29:12Z</time>
      </trkpt>
      <trkpt lat="45.24555" lon="6.47607">
        <ele>1399.9</ele>
        <time>2016-04-04T15:29:16Z</time>
      </trkpt>
      <trkpt lat="45.2455" lon="6.47615">
        <ele>1401.5</ele>
        <time>2016-04-04T15:29:20Z</time>
      </trkpt>
      <trkpt lat="45.24547" lon="6.47623">
        <ele>1402.9</ele>
        <time>2016-04-04T15:29:24Z</time>
      </trkpt>
      <trkpt lat="45.2454" lon="6.47627">
        <ele>1403.6</ele>
        <time>2016-04-04T15:29:28Z</time>
      </trkpt>
      <trkpt lat="45.24531" lon="6.47626">
        <ele>1403.4</ele>
        <time>2016-04-04T15:29:32Z</time>
      </trkpt>
      <trkpt lat="45.24523" lon="6.47627">
        <ele>1403.4</ele>
        <time>2016-04-04T15:29:36Z</time>
      </trkpt>
      <trkpt lat="45.24515" lon="6.47631">
        <ele>1403.9</ele>
        <time>2016-04-04T15:29:40Z</time>
      </trkpt>
      <trkpt lat="45.24508" lon="6.47632">
        <ele>1404.1</ele>
        <time>2016-04-04T15:29:44Z</time>
      </trkpt>
      <trkpt lat="45.24503" lon="6.47637">
        <ele>1405.1</ele>
        <time>2016-04-04T15:29:48Z</time>
      </trkpt>
      <trkpt lat="45.24498" lon="6.47646">
        <ele>1406.7</ele>
        <time>2016-04-04T15:29:52Z</time>
      </trkpt>
      <trkpt lat="45.24493" lon="6.47653">
        <ele>1408</ele>
        <time>2016-04-04T15:29:56Z</time>
      </trkpt>
      <trkpt lat="45.24491" lon="6.47663">
        <ele>1409.9</ele>
        <time>2016-04-04T15:30:00Z</time>
      </trkpt>
      <trkpt lat="45.24488" lon="6.47671">
        <ele>1411.3</ele>
        <time>2016-04-04T15:30:04Z</time>
      </trkpt>
      <trkpt lat="45.24481" lon="6.47678">
        <ele>1412.4</ele>
        <time>2016-04-04T15:30:12Z</time>
      </trkpt>
      <trkpt lat="45.24475" lon="6.4768">
        <ele>1412.5</ele>
        <time>2016-04-04T15:30:16Z</time>
      </trkpt>
      <trkpt lat="45.24469" lon="6.47683">
        <ele>1412.9</ele>
        <time>2016-04-04T15:30:20Z</time>
      </trkpt>
      <trkpt lat="45.24462" lon="6.47684">
        <ele>1412.9</ele>
        <time>2016-04-04T15:30:24Z</time>
      </trkpt>
      <trkpt lat="45.24454" lon="6.47683">
        <ele>1412.5</ele>
        <time>2016-04-04T15:30:28Z</time>
      </trkpt>
      <trkpt lat="45.24448" lon="6.47691">
        <ele>1414</ele>
        <time>2016-04-04T15:30:32Z</time>
      </trkpt>
      <trkpt lat="45.24441" lon="6.47694">
        <ele>1414.4</ele>
        <time>2016-04-04T15:30:36Z</time>
      </trkpt>
      <trkpt lat="45.24435" lon="6.47696">
        <ele>1414.8</ele>
        <time>2016-04-04T15:30:40Z</time>
      </trkpt>
      <trkpt lat="45.24428" lon="6.47698">
        <ele>1414.9</ele>
        <time>2016-04-04T15:30:44Z</time>
      </trkpt>
      <trkpt lat="45.24422" lon="6.47701">
        <ele>1415.4</ele>
        <time>2016-04-04T15:30:48Z</time>
      </trkpt>
      <trkpt lat="45.24414" lon="6.47699">
        <ele>1415</ele>
        <time>2016-04-04T15:30:52Z</time>
      </trkpt>
      <trkpt lat="45.24409" lon="6.47699">
        <ele>1414.6</ele>
        <time>2016-04-04T15:30:56Z</time>
      </trkpt>
      <trkpt lat="45.24402" lon="6.47699">
        <ele>1414.4</ele>
        <time>2016-04-04T15:31:00Z</time>
      </trkpt>
      <trkpt lat="45.24396" lon="6.47702">
        <ele>1414.8</ele>
        <time>2016-04-04T15:31:04Z</time>
      </trkpt>
      <trkpt lat="45.2439" lon="6.47706">
        <ele>1415.3</ele>
        <time>2016-04-04T15:31:08Z</time>
      </trkpt>
      <trkpt lat="45.24383" lon="6.47708">
        <ele>1415.2</ele>
        <time>2016-04-04T15:31:12Z</time>
      </trkpt>
      <trkpt lat="45.24374" lon="6.4771">
        <ele>1415.3</ele>
        <time>2016-04-04T15:31:16Z</time>
      </trkpt>
      <trkpt lat="45.24367" lon="6.47712">
        <ele>1415.3</ele>
        <time>2016-04-04T15:31:20Z</time>
      </trkpt>
      <trkpt lat="45.24358" lon="6.47713">
        <ele>1415</ele>
        <time>2016-04-04T15:31:24Z</time>
      </trkpt>
      <trkpt lat="45.24349" lon="6.47717">
        <ele>1415.5</ele>
        <time>2016-04-04T15:31:28Z</time>
      </trkpt>
      <trkpt lat="45.24341" lon="6.47725">
        <ele>1416.7</ele>
        <time>2016-04-04T15:31:32Z</time>
      </trkpt>
      <trkpt lat="45.24327" lon="6.47733">
        <ele>1416.9</ele>
        <time>2016-04-04T15:31:36Z</time>
      </trkpt>
      <trkpt lat="45.24312" lon="6.47743">
        <ele>1417.3</ele>
        <time>2016-04-04T15:31:40Z</time>
      </trkpt>
      <trkpt lat="45.24294" lon="6.47758">
        <ele>1418.4</ele>
        <time>2016-04-04T15:31:44Z</time>
      </trkpt>
      <trkpt lat="45.24271" lon="6.47761">
        <ele>1416.5</ele>
        <time>2016-04-04T15:31:48Z</time>
      </trkpt>
      <trkpt lat="45.24248" lon="6.47765">
        <ele>1414.5</ele>
        <time>2016-04-04T15:31:52Z</time>
      </trkpt>
      <trkpt lat="45.24231" lon="6.4777">
        <ele>1413.1</ele>
        <time>2016-04-04T15:31:56Z</time>
      </trkpt>
      <trkpt lat="45.24218" lon="6.47775">
        <ele>1412.1</ele>
        <time>2016-04-04T15:32:00Z</time>
      </trkpt>
      <trkpt lat="45.24207" lon="6.4778">
        <ele>1411.4</ele>
        <time>2016-04-04T15:32:04Z</time>
      </trkpt>
      <trkpt lat="45.24199" lon="6.47787">
        <ele>1411.5</ele>
        <time>2016-04-04T15:32:08Z</time>
      </trkpt>
      <trkpt lat="45.24195" lon="6.47798">
        <ele>1413.1</ele>
        <time>2016-04-04T15:32:12Z</time>
      </trkpt>
      <trkpt lat="45.24199" lon="6.47813">
        <ele>1416.4</ele>
        <time>2016-04-04T15:32:16Z</time>
      </trkpt>
      <trkpt lat="45.24207" lon="6.47818">
        <ele>1418.4</ele>
        <time>2016-04-04T15:32:20Z</time>
      </trkpt>
      <trkpt lat="45.24215" lon="6.47818">
        <ele>1419.6</ele>
        <time>2016-04-04T15:32:24Z</time>
      </trkpt>
      <trkpt lat="45.24224" lon="6.47816">
        <ele>1420.7</ele>
        <time>2016-04-04T15:32:28Z</time>
      </trkpt>
      <trkpt lat="45.24235" lon="6.47813">
        <ele>1421.8</ele>
        <time>2016-04-04T15:32:32Z</time>
      </trkpt>
      <trkpt lat="45.24245" lon="6.47811">
        <ele>1423.1</ele>
        <time>2016-04-04T15:32:36Z</time>
      </trkpt>
      <trkpt lat="45.24255" lon="6.47807">
        <ele>1423.7</ele>
        <time>2016-04-04T15:32:40Z</time>
      </trkpt>
      <trkpt lat="45.24265" lon="6.47805">
        <ele>1424.4</ele>
        <time>2016-04-04T15:32:44Z</time>
      </trkpt>
      <trkpt lat="45.24276" lon="6.47802">
        <ele>1425.3</ele>
        <time>2016-04-04T15:32:48Z</time>
      </trkpt>
      <trkpt lat="45.24287" lon="6.47802">
        <ele>1426.6</ele>
        <time>2016-04-04T15:32:52Z</time>
      </trkpt>
      <trkpt lat="45.24297" lon="6.47799">
        <ele>1427.3</ele>
        <time>2016-04-04T15:32:56Z</time>
      </trkpt>
      <trkpt lat="45.24308" lon="6.47797">
        <ele>1428.1</ele>
        <time>2016-04-04T15:33:00Z</time>
      </trkpt>
      <trkpt lat="45.24316" lon="6.47796">
        <ele>1428.9</ele>
        <time>2016-04-04T15:33:04Z</time>
      </trkpt>
      <trkpt lat="45.24326" lon="6.47795">
        <ele>1429.9</ele>
        <time>2016-04-04T15:33:08Z</time>
      </trkpt>
      <trkpt lat="45.24335" lon="6.47791">
        <ele>1429.9</ele>
        <time>2016-04-04T15:33:12Z</time>
      </trkpt>
      <trkpt lat="45.24342" lon="6.47788">
        <ele>1429.8</ele>
        <time>2016-04-04T15:33:16Z</time>
      </trkpt>
      <trkpt lat="45.24352" lon="6.47788">
        <ele>1430.6</ele>
        <time>2016-04-04T15:33:20Z</time>
      </trkpt>
      <trkpt lat="45.2436" lon="6.47788">
        <ele>1431.1</ele>
        <time>2016-04-04T15:33:24Z</time>
      </trkpt>
      <trkpt lat="45.24369" lon="6.47787">
        <ele>1431.5</ele>
        <time>2016-04-04T15:33:28Z</time>
      </trkpt>
      <trkpt lat="45.24377" lon="6.47787">
        <ele>1432</ele>
        <time>2016-04-04T15:33:32Z</time>
      </trkpt>
      <trkpt lat="45.24384" lon="6.47784">
        <ele>1431.9</ele>
        <time>2016-04-04T15:33:36Z</time>
      </trkpt>
      <trkpt lat="45.24392" lon="6.47781">
        <ele>1431.7</ele>
        <time>2016-04-04T15:33:40Z</time>
      </trkpt>
      <trkpt lat="45.24405" lon="6.47782">
        <ele>1432.8</ele>
        <time>2016-04-04T15:33:44Z</time>
      </trkpt>
      <trkpt lat="45.24412" lon="6.47783">
        <ele>1433.6</ele>
        <time>2016-04-04T15:33:48Z</time>
      </trkpt>
      <trkpt lat="45.24421" lon="6.47784">
        <ele>1434.2</ele>
        <time>2016-04-04T15:33:52Z</time>
      </trkpt>
      <trkpt lat="45.24427" lon="6.47785">
        <ele>1434.2</ele>
        <time>2016-04-04T15:33:56Z</time>
      </trkpt>
      <trkpt lat="45.24435" lon="6.47788">
        <ele>1434.9</ele>
        <time>2016-04-04T15:34:00Z</time>
      </trkpt>
      <trkpt lat="45.24444" lon="6.47789">
        <ele>1435.1</ele>
        <time>2016-04-04T15:34:04Z</time>
      </trkpt>
      <trkpt lat="45.24452" lon="6.47791">
        <ele>1435.5</ele>
        <time>2016-04-04T15:34:08Z</time>
      </trkpt>
      <trkpt lat="45.24461" lon="6.47792">
        <ele>1435.6</ele>
        <time>2016-04-04T15:34:12Z</time>
      </trkpt>
      <trkpt lat="45.24469" lon="6.47795">
        <ele>1436.1</ele>
        <time>2016-04-04T15:34:16Z</time>
      </trkpt>
      <trkpt lat="45.24479" lon="6.478">
        <ele>1437.3</ele>
        <time>2016-04-04T15:34:20Z</time>
      </trkpt>
      <trkpt lat="45.24483" lon="6.47805">
        <ele>1438.4</ele>
        <time>2016-04-04T15:34:24Z</time>
      </trkpt>
      <trkpt lat="45.24493" lon="6.47807">
        <ele>1438.8</ele>
        <time>2016-04-04T15:34:28Z</time>
      </trkpt>
      <trkpt lat="45.24503" lon="6.47812">
        <ele>1440.1</ele>
        <time>2016-04-04T15:34:32Z</time>
      </trkpt>
      <trkpt lat="45.24511" lon="6.47819">
        <ele>1441.8</ele>
        <time>2016-04-04T15:34:36Z</time>
      </trkpt>
      <trkpt lat="45.24517" lon="6.47826">
        <ele>1443.4</ele>
        <time>2016-04-04T15:34:40Z</time>
      </trkpt>
      <trkpt lat="45.24524" lon="6.47834">
        <ele>1445.5</ele>
        <time>2016-04-04T15:34:44Z</time>
      </trkpt>
      <trkpt lat="45.24528" lon="6.47831">
        <ele>1444.8</ele>
        <time>2016-04-04T15:34:48Z</time>
      </trkpt>
      <trkpt lat="45.24533" lon="6.47831">
        <ele>1445</ele>
        <time>2016-04-04T15:34:52Z</time>
      </trkpt>
      <trkpt lat="45.24543" lon="6.47834">
        <ele>1445.6</ele>
        <time>2016-04-04T15:34:56Z</time>
      </trkpt>
      <trkpt lat="45.24551" lon="6.47834">
        <ele>1445.9</ele>
        <time>2016-04-04T15:35:00Z</time>
      </trkpt>
      <trkpt lat="45.24562" lon="6.47837">
        <ele>1446.8</ele>
        <time>2016-04-04T15:35:04Z</time>
      </trkpt>
      <trkpt lat="45.24569" lon="6.47835">
        <ele>1446.2</ele>
        <time>2016-04-04T15:35:08Z</time>
      </trkpt>
      <trkpt lat="45.24578" lon="6.47833">
        <ele>1445.8</ele>
        <time>2016-04-04T15:35:12Z</time>
      </trkpt>
      <trkpt lat="45.24587" lon="6.47834">
        <ele>1446.6</ele>
        <time>2016-04-04T15:35:16Z</time>
      </trkpt>
      <trkpt lat="45.24598" lon="6.47833">
        <ele>1447.5</ele>
        <time>2016-04-04T15:35:20Z</time>
      </trkpt>
      <trkpt lat="45.24608" lon="6.47835">
        <ele>1449.1</ele>
        <time>2016-04-04T15:35:24Z</time>
      </trkpt>
      <trkpt lat="45.24617" lon="6.47839">
        <ele>1450.9</ele>
        <time>2016-04-04T15:35:28Z</time>
      </trkpt>
      <trkpt lat="45.24626" lon="6.4784">
        <ele>1452</ele>
        <time>2016-04-04T15:35:32Z</time>
      </trkpt>
      <trkpt lat="45.24634" lon="6.47841">
        <ele>1453.1</ele>
        <time>2016-04-04T15:35:36Z</time>
      </trkpt>
      <trkpt lat="45.24641" lon="6.47841">
        <ele>1453.8</ele>
        <time>2016-04-04T15:35:40Z</time>
      </trkpt>
      <trkpt lat="45.24651" lon="6.47841">
        <ele>1454.8</ele>
        <time>2016-04-04T15:35:44Z</time>
      </trkpt>
      <trkpt lat="45.24661" lon="6.47837">
        <ele>1455.2</ele>
        <time>2016-04-04T15:35:48Z</time>
      </trkpt>
      <trkpt lat="45.2467" lon="6.4784">
        <ele>1456.7</ele>
        <time>2016-04-04T15:35:52Z</time>
      </trkpt>
      <trkpt lat="45.24678" lon="6.47843">
        <ele>1458.6</ele>
        <time>2016-04-04T15:35:56Z</time>
      </trkpt>
      <trkpt lat="45.24687" lon="6.47844">
        <ele>1460.1</ele>
        <time>2016-04-04T15:36:00Z</time>
      </trkpt>
      <trkpt lat="45.24693" lon="6.47844">
        <ele>1460.9</ele>
        <time>2016-04-04T15:36:04Z</time>
      </trkpt>
      <trkpt lat="45.24699" lon="6.47842">
        <ele>1461.4</ele>
        <time>2016-04-04T15:36:08Z</time>
      </trkpt>
      <trkpt lat="45.24705" lon="6.47836">
        <ele>1461.1</ele>
        <time>2016-04-04T15:36:12Z</time>
      </trkpt>
      <trkpt lat="45.24711" lon="6.4783">
        <ele>1461</ele>
        <time>2016-04-04T15:36:16Z</time>
      </trkpt>
      <trkpt lat="45.24721" lon="6.47825">
        <ele>1461.5</ele>
        <time>2016-04-04T15:36:20Z</time>
      </trkpt>
      <trkpt lat="45.24726" lon="6.47816">
        <ele>1460.9</ele>
        <time>2016-04-04T15:36:24Z</time>
      </trkpt>
      <trkpt lat="45.2473" lon="6.47809">
        <ele>1460.3</ele>
        <time>2016-04-04T15:36:28Z</time>
      </trkpt>
      <trkpt lat="45.24736" lon="6.478">
        <ele>1459.9</ele>
        <time>2016-04-04T15:36:32Z</time>
      </trkpt>
      <trkpt lat="45.24745" lon="6.47797">
        <ele>1460.8</ele>
        <time>2016-04-04T15:36:36Z</time>
      </trkpt>
      <trkpt lat="45.24752" lon="6.47791">
        <ele>1461.2</ele>
        <time>2016-04-04T15:36:40Z</time>
      </trkpt>
      <trkpt lat="45.24759" lon="6.47784">
        <ele>1461.1</ele>
        <time>2016-04-04T15:36:44Z</time>
      </trkpt>
      <trkpt lat="45.24765" lon="6.47775">
        <ele>1460.4</ele>
        <time>2016-04-04T15:36:48Z</time>
      </trkpt>
      <trkpt lat="45.24772" lon="6.47767">
        <ele>1460</ele>
        <time>2016-04-04T15:36:52Z</time>
      </trkpt>
      <trkpt lat="45.2478" lon="6.47759">
        <ele>1459.8</ele>
        <time>2016-04-04T15:36:56Z</time>
      </trkpt>
      <trkpt lat="45.24785" lon="6.47751">
        <ele>1458.9</ele>
        <time>2016-04-04T15:37:00Z</time>
      </trkpt>
      <trkpt lat="45.24791" lon="6.47748">
        <ele>1459</ele>
        <time>2016-04-04T15:37:04Z</time>
      </trkpt>
      <trkpt lat="45.24796" lon="6.47746">
        <ele>1459.3</ele>
        <time>2016-04-04T15:37:08Z</time>
      </trkpt>
      <trkpt lat="45.24802" lon="6.47747">
        <ele>1460</ele>
        <time>2016-04-04T15:37:12Z</time>
      </trkpt>
      <trkpt lat="45.24809" lon="6.47749">
        <ele>1461.1</ele>
        <time>2016-04-04T15:37:16Z</time>
      </trkpt>
      <trkpt lat="45.24818" lon="6.47752">
        <ele>1462.7</ele>
        <time>2016-04-04T15:37:20Z</time>
      </trkpt>
      <trkpt lat="45.24825" lon="6.47752">
        <ele>1463.5</ele>
        <time>2016-04-04T15:37:24Z</time>
      </trkpt>
      <trkpt lat="45.24835" lon="6.47756">
        <ele>1465.4</ele>
        <time>2016-04-04T15:37:28Z</time>
      </trkpt>
      <trkpt lat="45.24839" lon="6.4776">
        <ele>1466.2</ele>
        <time>2016-04-04T15:37:32Z</time>
      </trkpt>
      <trkpt lat="45.24848" lon="6.47768">
        <ele>1467.9</ele>
        <time>2016-04-04T15:37:36Z</time>
      </trkpt>
      <trkpt lat="45.24855" lon="6.47772">
        <ele>1468.9</ele>
        <time>2016-04-04T15:37:40Z</time>
      </trkpt>
      <trkpt lat="45.24861" lon="6.47773">
        <ele>1469.2</ele>
        <time>2016-04-04T15:37:44Z</time>
      </trkpt>
      <trkpt lat="45.24871" lon="6.47764">
        <ele>1467.7</ele>
        <time>2016-04-04T15:41:36Z</time>
      </trkpt>
      <trkpt lat="45.24873" lon="6.4774">
        <ele>1462.4</ele>
        <time>2016-04-04T15:41:40Z</time>
      </trkpt>
      <trkpt lat="45.24886" lon="6.47732">
        <ele>1460.7</ele>
        <time>2016-04-04T15:41:44Z</time>
      </trkpt>
      <trkpt lat="45.24888" lon="6.4772">
        <ele>1457.5</ele>
        <time>2016-04-04T15:41:48Z</time>
      </trkpt>
      <trkpt lat="45.24902" lon="6.47716">
        <ele>1456.4</ele>
        <time>2016-04-04T15:41:52Z</time>
      </trkpt>
      <trkpt lat="45.24915" lon="6.47712">
        <ele>1455</ele>
        <time>2016-04-04T15:41:56Z</time>
      </trkpt>
      <trkpt lat="45.24903" lon="6.47702">
        <ele>1452.4</ele>
        <time>2016-04-04T15:42:00Z</time>
      </trkpt>
      <trkpt lat="45.24883" lon="6.47678">
        <ele>1446.9</ele>
        <time>2016-04-04T15:42:04Z</time>
      </trkpt>
      <trkpt lat="45.24895" lon="6.47661">
        <ele>1441.9</ele>
        <time>2016-04-04T15:42:08Z</time>
      </trkpt>
      <trkpt lat="45.24911" lon="6.4765">
        <ele>1437.7</ele>
        <time>2016-04-04T15:42:12Z</time>
      </trkpt>
      <trkpt lat="45.24928" lon="6.47608">
        <ele>1425.7</ele>
        <time>2016-04-04T15:42:16Z</time>
      </trkpt>
      <trkpt lat="45.24946" lon="6.47581">
        <ele>1417.9</ele>
        <time>2016-04-04T15:42:20Z</time>
      </trkpt>
      <trkpt lat="45.24976" lon="6.47571">
        <ele>1414.5</ele>
        <time>2016-04-04T15:42:24Z</time>
      </trkpt>
      <trkpt lat="45.24999" lon="6.47558">
        <ele>1410.5</ele>
        <time>2016-04-04T15:42:28Z</time>
      </trkpt>
      <trkpt lat="45.25028" lon="6.47549">
        <ele>1407.4</ele>
        <time>2016-04-04T15:42:32Z</time>
      </trkpt>
      <trkpt lat="45.25054" lon="6.4754">
        <ele>1404.7</ele>
        <time>2016-04-04T15:42:36Z</time>
      </trkpt>
      <trkpt lat="45.25056" lon="6.47541">
        <ele>1405</ele>
        <time>2016-04-04T15:42:40Z</time>
      </trkpt>
      <trkpt lat="45.25054" lon="6.47505">
        <ele>1394.6</ele>
        <time>2016-04-04T15:43:04Z</time>
      </trkpt>
      <trkpt lat="45.2504" lon="6.47482">
        <ele>1388.1</ele>
        <time>2016-04-04T15:43:08Z</time>
      </trkpt>
      <trkpt lat="45.2504" lon="6.47462">
        <ele>1382.7</ele>
        <time>2016-04-04T15:43:12Z</time>
      </trkpt>
      <trkpt lat="45.25023" lon="6.47451">
        <ele>1379.4</ele>
        <time>2016-04-04T15:43:16Z</time>
      </trkpt>
      <trkpt lat="45.25006" lon="6.47426">
        <ele>1371.8</ele>
        <time>2016-04-04T15:43:20Z</time>
      </trkpt>
      <trkpt lat="45.25" lon="6.47405">
        <ele>1366.2</ele>
        <time>2016-04-04T15:43:24Z</time>
      </trkpt>
      <trkpt lat="45.25018" lon="6.47396">
        <ele>1364.8</ele>
        <time>2016-04-04T15:43:28Z</time>
      </trkpt>
      <trkpt lat="45.25025" lon="6.47374">
        <ele>1360</ele>
        <time>2016-04-04T15:43:32Z</time>
      </trkpt>
      <trkpt lat="45.25033" lon="6.47338">
        <ele>1352</ele>
        <time>2016-04-04T15:43:36Z</time>
      </trkpt>
      <trkpt lat="45.2504" lon="6.47299">
        <ele>1347.5</ele>
        <time>2016-04-04T15:43:40Z</time>
      </trkpt>
      <trkpt lat="45.25051" lon="6.47267">
        <ele>1344.6</ele>
        <time>2016-04-04T15:43:44Z</time>
      </trkpt>
      <trkpt lat="45.25066" lon="6.47244">
        <ele>1343.1</ele>
        <time>2016-04-04T15:43:48Z</time>
      </trkpt>
      <trkpt lat="45.25075" lon="6.47226">
        <ele>1341.6</ele>
        <time>2016-04-04T15:43:52Z</time>
      </trkpt>
      <trkpt lat="45.25067" lon="6.47202">
        <ele>1338.4</ele>
        <time>2016-04-04T15:43:56Z</time>
      </trkpt>
      <trkpt lat="45.25064" lon="6.47189">
        <ele>1336.7</ele>
        <time>2016-04-04T15:44:00Z</time>
      </trkpt>
      <trkpt lat="45.25057" lon="6.4718">
        <ele>1335.5</ele>
        <time>2016-04-04T15:44:04Z</time>
      </trkpt>
      <trkpt lat="45.25042" lon="6.47156">
        <ele>1332.4</ele>
        <time>2016-04-04T15:44:08Z</time>
      </trkpt>
      <trkpt lat="45.25038" lon="6.4712">
        <ele>1328.1</ele>
        <time>2016-04-04T15:44:12Z</time>
      </trkpt>
      <trkpt lat="45.25024" lon="6.47081">
        <ele>1323.6</ele>
        <time>2016-04-04T15:44:16Z</time>
      </trkpt>
      <trkpt lat="45.25015" lon="6.47074">
        <ele>1322.1</ele>
        <time>2016-04-04T15:44:20Z</time>
      </trkpt>
      <trkpt lat="45.25002" lon="6.47074">
        <ele>1322.3</ele>
        <time>2016-04-04T15:44:24Z</time>
      </trkpt>
      <trkpt lat="45.24992" lon="6.47076">
        <ele>1321.5</ele>
        <time>2016-04-04T15:44:28Z</time>
      </trkpt>
      <trkpt lat="45.24983" lon="6.47067">
        <ele>1318.7</ele>
        <time>2016-04-04T15:44:32Z</time>
      </trkpt>
      <trkpt lat="45.24973" lon="6.47053">
        <ele>1315</ele>
        <time>2016-04-04T15:44:36Z</time>
      </trkpt>
      <trkpt lat="45.24969" lon="6.47049">
        <ele>1313.9</ele>
        <time>2016-04-04T15:44:40Z</time>
      </trkpt>
      <trkpt lat="45.24959" lon="6.47047">
        <ele>1312.5</ele>
        <time>2016-04-04T15:45:52Z</time>
      </trkpt>
      <trkpt lat="45.24942" lon="6.47047">
        <ele>1310.6</ele>
        <time>2016-04-04T15:45:56Z</time>
      </trkpt>
      <trkpt lat="45.24918" lon="6.47049">
        <ele>1308.1</ele>
        <time>2016-04-04T15:46:00Z</time>
      </trkpt>
      <trkpt lat="45.24895" lon="6.47047">
        <ele>1304.8</ele>
        <time>2016-04-04T15:46:04Z</time>
      </trkpt>
      <trkpt lat="45.24881" lon="6.4703">
        <ele>1300.6</ele>
        <time>2016-04-04T15:46:08Z</time>
      </trkpt>
      <trkpt lat="45.24876" lon="6.46992">
        <ele>1294.5</ele>
        <time>2016-04-04T15:46:12Z</time>
      </trkpt>
      <trkpt lat="45.24859" lon="6.46969">
        <ele>1289.7</ele>
        <time>2016-04-04T15:46:16Z</time>
      </trkpt>
      <trkpt lat="45.2484" lon="6.46971">
        <ele>1287.9</ele>
        <time>2016-04-04T15:46:20Z</time>
      </trkpt>
      <trkpt lat="45.24824" lon="6.46993">
        <ele>1288.5</ele>
        <time>2016-04-04T15:46:24Z</time>
      </trkpt>
      <trkpt lat="45.24816" lon="6.46984">
        <ele>1286.7</ele>
        <time>2016-04-04T15:46:28Z</time>
      </trkpt>
      <trkpt lat="45.24787" lon="6.46974">
        <ele>1282.5</ele>
        <time>2016-04-04T15:46:32Z</time>
      </trkpt>
      <trkpt lat="45.24759" lon="6.46959">
        <ele>1277.6</ele>
        <time>2016-04-04T15:46:36Z</time>
      </trkpt>
      <trkpt lat="45.24735" lon="6.4695">
        <ele>1274.3</ele>
        <time>2016-04-04T15:46:40Z</time>
      </trkpt>
      <trkpt lat="45.24701" lon="6.46931">
        <ele>1268.4</ele>
        <time>2016-04-04T15:46:44Z</time>
      </trkpt>
      <trkpt lat="45.2467" lon="6.46904">
        <ele>1260.4</ele>
        <time>2016-04-04T15:46:48Z</time>
      </trkpt>
      <trkpt lat="45.24648" lon="6.4688">
        <ele>1255.1</ele>
        <time>2016-04-04T15:46:52Z</time>
      </trkpt>
      <trkpt lat="45.24638" lon="6.46855">
        <ele>1250.3</ele>
        <time>2016-04-04T15:46:56Z</time>
      </trkpt>
      <trkpt lat="45.24623" lon="6.46835">
        <ele>1245.7</ele>
        <time>2016-04-04T15:47:04Z</time>
      </trkpt>
      <trkpt lat="45.24599" lon="6.46825">
        <ele>1241.1</ele>
        <time>2016-04-04T15:47:08Z</time>
      </trkpt>
      <trkpt lat="45.24569" lon="6.46814">
        <ele>1234.8</ele>
        <time>2016-04-04T15:47:12Z</time>
      </trkpt>
      <trkpt lat="45.24547" lon="6.46808">
        <ele>1229.5</ele>
        <time>2016-04-04T15:47:16Z</time>
      </trkpt>
      <trkpt lat="45.24511" lon="6.46812">
        <ele>1223.9</ele>
        <time>2016-04-04T15:47:20Z</time>
      </trkpt>
      <trkpt lat="45.24472" lon="6.4682">
        <ele>1217.4</ele>
        <time>2016-04-04T15:47:24Z</time>
      </trkpt>
      <trkpt lat="45.24439" lon="6.46812">
        <ele>1209.2</ele>
        <time>2016-04-04T15:47:28Z</time>
      </trkpt>
      <trkpt lat="45.24418" lon="6.46784">
        <ele>1202.6</ele>
        <time>2016-04-04T15:47:32Z</time>
      </trkpt>
      <trkpt lat="45.24403" lon="6.46749">
        <ele>1195.5</ele>
        <time>2016-04-04T15:47:36Z</time>
      </trkpt>
      <trkpt lat="45.24382" lon="6.46734">
        <ele>1186.7</ele>
        <time>2016-04-04T15:47:40Z</time>
      </trkpt>
      <trkpt lat="45.24376" lon="6.46724">
        <ele>1182.9</ele>
        <time>2016-04-04T15:47:44Z</time>
      </trkpt>
      <trkpt lat="45.24379" lon="6.46722">
        <ele>1183.4</ele>
        <time>2016-04-04T15:47:48Z</time>
      </trkpt>
      <trkpt lat="45.24384" lon="6.46719">
        <ele>1184.3</ele>
        <time>2016-04-04T15:47:52Z</time>
      </trkpt>
      <trkpt lat="45.24392" lon="6.46714">
        <ele>1185.4</ele>
        <time>2016-04-04T15:47:56Z</time>
      </trkpt>
      <trkpt lat="45.24404" lon="6.46703">
        <ele>1186.5</ele>
        <time>2016-04-04T15:48:00Z</time>
      </trkpt>
      <trkpt lat="45.24417" lon="6.4669">
        <ele>1187.1</ele>
        <time>2016-04-04T15:48:04Z</time>
      </trkpt>
      <trkpt lat="45.24433" lon="6.4668">
        <ele>1187</ele>
        <time>2016-04-04T15:48:08Z</time>
      </trkpt>
      <trkpt lat="45.24447" lon="6.46675">
        <ele>1187.4</ele>
        <time>2016-04-04T15:48:12Z</time>
      </trkpt>
      <trkpt lat="45.24462" lon="6.46671">
        <ele>1188.5</ele>
        <time>2016-04-04T15:48:16Z</time>
      </trkpt>
      <trkpt lat="45.24485" lon="6.46672">
        <ele>1191.5</ele>
        <time>2016-04-04T15:48:20Z</time>
      </trkpt>
      <trkpt lat="45.24507" lon="6.46674">
        <ele>1194</ele>
        <time>2016-04-04T15:48:24Z</time>
      </trkpt>
      <trkpt lat="45.24531" lon="6.46679">
        <ele>1196.6</ele>
        <time>2016-04-04T15:48:28Z</time>
      </trkpt>
      <trkpt lat="45.24558" lon="6.46684">
        <ele>1199.7</ele>
        <time>2016-04-04T15:48:32Z</time>
      </trkpt>
      <trkpt lat="45.24568" lon="6.46677">
        <ele>1198.3</ele>
        <time>2016-04-04T15:48:36Z</time>
      </trkpt>
      <trkpt lat="45.2457" lon="6.46675">
        <ele>1197.8</ele>
        <time>2016-04-04T15:48:40Z</time>
      </trkpt>
      <trkpt lat="45.24573" lon="6.46644">
        <ele>1196.7</ele>
        <time>2016-04-04T15:48:56Z</time>
      </trkpt>
      <trkpt lat="45.24565" lon="6.46634">
        <ele>1196.3</ele>
        <time>2016-04-04T15:49:00Z</time>
      </trkpt>
      <trkpt lat="45.24558" lon="6.46621">
        <ele>1195.7</ele>
        <time>2016-04-04T15:49:04Z</time>
      </trkpt>
      <trkpt lat="45.24553" lon="6.46604">
        <ele>1195.3</ele>
        <time>2016-04-04T15:49:08Z</time>
      </trkpt>
      <trkpt lat="45.24541" lon="6.46588">
        <ele>1193</ele>
        <time>2016-04-04T15:49:12Z</time>
      </trkpt>
      <trkpt lat="45.24521" lon="6.46576">
        <ele>1190.1</ele>
        <time>2016-04-04T15:49:16Z</time>
      </trkpt>
      <trkpt lat="45.24499" lon="6.4656">
        <ele>1189</ele>
        <time>2016-04-04T15:49:20Z</time>
      </trkpt>
      <trkpt lat="45.2447" lon="6.46548">
        <ele>1187.1</ele>
        <time>2016-04-04T15:49:24Z</time>
      </trkpt>
      <trkpt lat="45.24445" lon="6.4654">
        <ele>1184.6</ele>
        <time>2016-04-04T15:49:28Z</time>
      </trkpt>
      <trkpt lat="45.24424" lon="6.46531">
        <ele>1182.5</ele>
        <time>2016-04-04T15:49:32Z</time>
      </trkpt>
      <trkpt lat="45.2441" lon="6.46508">
        <ele>1183.3</ele>
        <time>2016-04-04T15:49:36Z</time>
      </trkpt>
      <trkpt lat="45.24402" lon="6.46483">
        <ele>1184.4</ele>
        <time>2016-04-04T15:49:40Z</time>
      </trkpt>
      <trkpt lat="45.24396" lon="6.4646">
        <ele>1185</ele>
        <time>2016-04-04T15:49:44Z</time>
      </trkpt>
      <trkpt lat="45.24397" lon="6.46455">
        <ele>1185.5</ele>
        <time>2016-04-04T15:49:48Z</time>
      </trkpt>
      <trkpt lat="45.24403" lon="6.46454">
        <ele>1187.2</ele>
        <time>2016-04-04T15:50:00Z</time>
      </trkpt>
      <trkpt lat="45.24405" lon="6.46459">
        <ele>1187.2</ele>
        <time>2016-04-04T15:50:04Z</time>
      </trkpt>
      <trkpt lat="45.24415" lon="6.46467">
        <ele>1188.8</ele>
        <time>2016-04-04T15:50:16Z</time>
      </trkpt>
      <trkpt lat="45.24426" lon="6.46459">
        <ele>1192.1</ele>
        <time>2016-04-04T15:50:32Z</time>
      </trkpt>
      <trkpt lat="45.24447" lon="6.46434">
        <ele>1199.1</ele>
        <time>2016-04-04T15:51:16Z</time>
      </trkpt>
      <trkpt lat="45.24464" lon="6.46425">
        <ele>1203.8</ele>
        <time>2016-04-04T15:51:48Z</time>
      </trkpt>
      <trkpt lat="45.2447" lon="6.46416">
        <ele>1206.2</ele>
        <time>2016-04-04T15:52:08Z</time>
      </trkpt>
      <trkpt lat="45.24477" lon="6.46409">
        <ele>1207.4</ele>
        <time>2016-04-04T15:52:12Z</time>
      </trkpt>
      <trkpt lat="45.24483" lon="6.46405">
        <ele>1208.7</ele>
        <time>2016-04-04T15:52:16Z</time>
      </trkpt>
      <trkpt lat="45.24492" lon="6.46401">
        <ele>1210.4</ele>
        <time>2016-04-04T15:52:20Z</time>
      </trkpt>
      <trkpt lat="45.245" lon="6.46397">
        <ele>1212</ele>
        <time>2016-04-04T15:52:24Z</time>
      </trkpt>
      <trkpt lat="45.24506" lon="6.46394">
        <ele>1212.4</ele>
        <time>2016-04-04T15:52:28Z</time>
      </trkpt>
      <trkpt lat="45.24515" lon="6.46392">
        <ele>1212.8</ele>
        <time>2016-04-04T15:52:32Z</time>
      </trkpt>
      <trkpt lat="45.24517" lon="6.46391">
        <ele>1212.9</ele>
        <time>2016-04-04T15:52:36Z</time>
      </trkpt>
      <trkpt lat="45.24527" lon="6.46389">
        <ele>1213.6</ele>
        <time>2016-04-04T15:52:40Z</time>
      </trkpt>
      <trkpt lat="45.2453" lon="6.46391">
        <ele>1213.8</ele>
        <time>2016-04-04T15:52:44Z</time>
      </trkpt>
      <trkpt lat="45.24537" lon="6.46392">
        <ele>1214.4</ele>
        <time>2016-04-04T15:52:48Z</time>
      </trkpt>
      <trkpt lat="45.24546" lon="6.46397">
        <ele>1215.3</ele>
        <time>2016-04-04T15:52:52Z</time>
      </trkpt>
      <trkpt lat="45.24552" lon="6.46399">
        <ele>1215.8</ele>
        <time>2016-04-04T15:52:56Z</time>
      </trkpt>
      <trkpt lat="45.24563" lon="6.464">
        <ele>1216.6</ele>
        <time>2016-04-04T15:53:00Z</time>
      </trkpt>
      <trkpt lat="45.24568" lon="6.46401">
        <ele>1217</ele>
        <time>2016-04-04T15:53:04Z</time>
      </trkpt>
      <trkpt lat="45.24571" lon="6.46405">
        <ele>1217.5</ele>
        <time>2016-04-04T15:53:08Z</time>
      </trkpt>
      <trkpt lat="45.24576" lon="6.46408">
        <ele>1218</ele>
        <time>2016-04-04T15:53:12Z</time>
      </trkpt>
      <trkpt lat="45.24579" lon="6.46416">
        <ele>1218.7</ele>
        <time>2016-04-04T15:53:16Z</time>
      </trkpt>
      <trkpt lat="45.24586" lon="6.46423">
        <ele>1219</ele>
        <time>2016-04-04T15:53:20Z</time>
      </trkpt>
      <trkpt lat="45.24591" lon="6.46427">
        <ele>1219.7</ele>
        <time>2016-04-04T15:53:24Z</time>
      </trkpt>
      <trkpt lat="45.246" lon="6.46432">
        <ele>1220.7</ele>
        <time>2016-04-04T15:53:28Z</time>
      </trkpt>
      <trkpt lat="45.24606" lon="6.46439">
        <ele>1221.3</ele>
        <time>2016-04-04T15:53:32Z</time>
      </trkpt>
      <trkpt lat="45.24613" lon="6.46445">
        <ele>1222</ele>
        <time>2016-04-04T15:53:36Z</time>
      </trkpt>
      <trkpt lat="45.24618" lon="6.46448">
        <ele>1222.7</ele>
        <time>2016-04-04T15:53:40Z</time>
      </trkpt>
      <trkpt lat="45.24625" lon="6.46453">
        <ele>1223.5</ele>
        <time>2016-04-04T15:53:44Z</time>
      </trkpt>
      <trkpt lat="45.24631" lon="6.46459">
        <ele>1224.2</ele>
        <time>2016-04-04T15:53:48Z</time>
      </trkpt>
      <trkpt lat="45.24636" lon="6.46462">
        <ele>1224.9</ele>
        <time>2016-04-04T15:53:52Z</time>
      </trkpt>
      <trkpt lat="45.24644" lon="6.46466">
        <ele>1225.9</ele>
        <time>2016-04-04T15:53:56Z</time>
      </trkpt>
      <trkpt lat="45.24649" lon="6.46471">
        <ele>1226.4</ele>
        <time>2016-04-04T15:54:00Z</time>
      </trkpt>
      <trkpt lat="45.24656" lon="6.46476">
        <ele>1227.3</ele>
        <time>2016-04-04T15:54:04Z</time>
      </trkpt>
      <trkpt lat="45.24664" lon="6.46485">
        <ele>1228.2</ele>
        <time>2016-04-04T15:54:08Z</time>
      </trkpt>
      <trkpt lat="45.24673" lon="6.46492">
        <ele>1229.4</ele>
        <time>2016-04-04T15:54:12Z</time>
      </trkpt>
      <trkpt lat="45.24679" lon="6.46503">
        <ele>1229.5</ele>
        <time>2016-04-04T15:54:16Z</time>
      </trkpt>
      <trkpt lat="45.24683" lon="6.46511">
        <ele>1229.3</ele>
        <time>2016-04-04T15:54:20Z</time>
      </trkpt>
      <trkpt lat="45.24688" lon="6.46519">
        <ele>1229.1</ele>
        <time>2016-04-04T15:54:24Z</time>
      </trkpt>
      <trkpt lat="45.24694" lon="6.46526">
        <ele>1229.4</ele>
        <time>2016-04-04T15:54:28Z</time>
      </trkpt>
      <trkpt lat="45.24699" lon="6.46532">
        <ele>1229.5</ele>
        <time>2016-04-04T15:54:32Z</time>
      </trkpt>
      <trkpt lat="45.24707" lon="6.46535">
        <ele>1230.6</ele>
        <time>2016-04-04T15:54:36Z</time>
      </trkpt>
      <trkpt lat="45.24714" lon="6.46542">
        <ele>1230.9</ele>
        <time>2016-04-04T15:54:40Z</time>
      </trkpt>
      <trkpt lat="45.24721" lon="6.46548">
        <ele>1231.5</ele>
        <time>2016-04-04T15:54:44Z</time>
      </trkpt>
      <trkpt lat="45.24728" lon="6.46553">
        <ele>1232.1</ele>
        <time>2016-04-04T15:54:48Z</time>
      </trkpt>
      <trkpt lat="45.24734" lon="6.46557">
        <ele>1232.8</ele>
        <time>2016-04-04T15:54:52Z</time>
      </trkpt>
      <trkpt lat="45.24742" lon="6.46559">
        <ele>1234</ele>
        <time>2016-04-04T15:54:56Z</time>
      </trkpt>
      <trkpt lat="45.24749" lon="6.4656">
        <ele>1235.1</ele>
        <time>2016-04-04T15:55:00Z</time>
      </trkpt>
      <trkpt lat="45.24757" lon="6.46562">
        <ele>1236.4</ele>
        <time>2016-04-04T15:55:04Z</time>
      </trkpt>
      <trkpt lat="45.24764" lon="6.46566">
        <ele>1237.4</ele>
        <time>2016-04-04T15:55:08Z</time>
      </trkpt>
      <trkpt lat="45.24771" lon="6.46565">
        <ele>1238.8</ele>
        <time>2016-04-04T15:55:12Z</time>
      </trkpt>
      <trkpt lat="45.24776" lon="6.46568">
        <ele>1239.6</ele>
        <time>2016-04-04T15:55:16Z</time>
      </trkpt>
      <trkpt lat="45.24786" lon="6.46572">
        <ele>1241.1</ele>
        <time>2016-04-04T15:55:20Z</time>
      </trkpt>
      <trkpt lat="45.24795" lon="6.46574">
        <ele>1242.6</ele>
        <time>2016-04-04T15:55:24Z</time>
      </trkpt>
      <trkpt lat="45.24802" lon="6.46578">
        <ele>1243.5</ele>
        <time>2016-04-04T15:55:28Z</time>
      </trkpt>
      <trkpt lat="45.24811" lon="6.46586">
        <ele>1244.4</ele>
        <time>2016-04-04T15:55:32Z</time>
      </trkpt>
      <trkpt lat="45.24815" lon="6.46596">
        <ele>1244.2</ele>
        <time>2016-04-04T15:55:36Z</time>
      </trkpt>
      <trkpt lat="45.2482" lon="6.46609">
        <ele>1244.2</ele>
        <time>2016-04-04T15:55:40Z</time>
      </trkpt>
      <trkpt lat="45.24826" lon="6.46614">
        <ele>1245</ele>
        <time>2016-04-04T15:55:44Z</time>
      </trkpt>
      <trkpt lat="45.24831" lon="6.46621">
        <ele>1245.3</ele>
        <time>2016-04-04T15:55:48Z</time>
      </trkpt>
      <trkpt lat="45.24836" lon="6.46631">
        <ele>1245.5</ele>
        <time>2016-04-04T15:55:52Z</time>
      </trkpt>
      <trkpt lat="45.24842" lon="6.46638">
        <ele>1246.2</ele>
        <time>2016-04-04T15:55:56Z</time>
      </trkpt>
      <trkpt lat="45.24847" lon="6.46645">
        <ele>1246.7</ele>
        <time>2016-04-04T15:56:00Z</time>
      </trkpt>
      <trkpt lat="45.24854" lon="6.46652">
        <ele>1247.5</ele>
        <time>2016-04-04T15:56:04Z</time>
      </trkpt>
      <trkpt lat="45.24861" lon="6.46656">
        <ele>1248.6</ele>
        <time>2016-04-04T15:56:08Z</time>
      </trkpt>
      <trkpt lat="45.24871" lon="6.46659">
        <ele>1250</ele>
        <time>2016-04-04T15:56:12Z</time>
      </trkpt>
      <trkpt lat="45.24879" lon="6.46664">
        <ele>1251.1</ele>
        <time>2016-04-04T15:56:16Z</time>
      </trkpt>
      <trkpt lat="45.24886" lon="6.46664">
        <ele>1252.6</ele>
        <time>2016-04-04T15:56:20Z</time>
      </trkpt>
      <trkpt lat="45.24892" lon="6.46668">
        <ele>1253.2</ele>
        <time>2016-04-04T15:56:24Z</time>
      </trkpt>
      <trkpt lat="45.249" lon="6.46673">
        <ele>1254.5</ele>
        <time>2016-04-04T15:56:28Z</time>
      </trkpt>
      <trkpt lat="45.24907" lon="6.46679">
        <ele>1255.4</ele>
        <time>2016-04-04T15:56:32Z</time>
      </trkpt>
      <trkpt lat="45.24912" lon="6.46689">
        <ele>1255.6</ele>
        <time>2016-04-04T15:56:36Z</time>
      </trkpt>
      <trkpt lat="45.24917" lon="6.46697">
        <ele>1255.9</ele>
        <time>2016-04-04T15:56:40Z</time>
      </trkpt>
      <trkpt lat="45.24922" lon="6.46708">
        <ele>1256.2</ele>
        <time>2016-04-04T15:56:44Z</time>
      </trkpt>
      <trkpt lat="45.24925" lon="6.46717">
        <ele>1256.4</ele>
        <time>2016-04-04T15:56:48Z</time>
      </trkpt>
      <trkpt lat="45.24926" lon="6.46729">
        <ele>1255.7</ele>
        <time>2016-04-04T15:56:52Z</time>
      </trkpt>
      <trkpt lat="45.24923" lon="6.46741">
        <ele>1254.2</ele>
        <time>2016-04-04T15:56:56Z</time>
      </trkpt>
      <trkpt lat="45.2492" lon="6.46751">
        <ele>1253</ele>
        <time>2016-04-04T15:57:00Z</time>
      </trkpt>
      <trkpt lat="45.2492" lon="6.46759">
        <ele>1254</ele>
        <time>2016-04-04T15:57:04Z</time>
      </trkpt>
      <trkpt lat="45.2492" lon="6.4677">
        <ele>1255.8</ele>
        <time>2016-04-04T15:57:08Z</time>
      </trkpt>
      <trkpt lat="45.24927" lon="6.46772">
        <ele>1257.6</ele>
        <time>2016-04-04T15:57:12Z</time>
      </trkpt>
      <trkpt lat="45.24932" lon="6.46768">
        <ele>1258.1</ele>
        <time>2016-04-04T15:57:16Z</time>
      </trkpt>
      <trkpt lat="45.24938" lon="6.4676">
        <ele>1258.6</ele>
        <time>2016-04-04T15:57:20Z</time>
      </trkpt>
      <trkpt lat="45.24942" lon="6.46752">
        <ele>1258.7</ele>
        <time>2016-04-04T15:57:24Z</time>
      </trkpt>
      <trkpt lat="45.24948" lon="6.46746">
        <ele>1260.2</ele>
        <time>2016-04-04T15:57:28Z</time>
      </trkpt>
      <trkpt lat="45.24955" lon="6.46737">
        <ele>1262.6</ele>
        <time>2016-04-04T15:57:32Z</time>
      </trkpt>
      <trkpt lat="45.2496" lon="6.46728">
        <ele>1264.1</ele>
        <time>2016-04-04T15:57:36Z</time>
      </trkpt>
      <trkpt lat="45.24964" lon="6.4672">
        <ele>1265.8</ele>
        <time>2016-04-04T15:57:40Z</time>
      </trkpt>
      <trkpt lat="45.24965" lon="6.4671">
        <ele>1266.6</ele>
        <time>2016-04-04T15:57:44Z</time>
      </trkpt>
      <trkpt lat="45.24965" lon="6.46699">
        <ele>1267</ele>
        <time>2016-04-04T15:57:48Z</time>
      </trkpt>
      <trkpt lat="45.24964" lon="6.46689">
        <ele>1267.4</ele>
        <time>2016-04-04T15:57:52Z</time>
      </trkpt>
      <trkpt lat="45.2496" lon="6.46679">
        <ele>1267.2</ele>
        <time>2016-04-04T15:57:56Z</time>
      </trkpt>
      <trkpt lat="45.24959" lon="6.4667">
        <ele>1267.5</ele>
        <time>2016-04-04T15:58:00Z</time>
      </trkpt>
      <trkpt lat="45.24957" lon="6.46662">
        <ele>1267.8</ele>
        <time>2016-04-04T15:58:04Z</time>
      </trkpt>
      <trkpt lat="45.24954" lon="6.46652">
        <ele>1268.5</ele>
        <time>2016-04-04T15:58:08Z</time>
      </trkpt>
      <trkpt lat="45.24952" lon="6.46642">
        <ele>1269.2</ele>
        <time>2016-04-04T15:58:12Z</time>
      </trkpt>
      <trkpt lat="45.24948" lon="6.4663">
        <ele>1270</ele>
        <time>2016-04-04T15:58:16Z</time>
      </trkpt>
      <trkpt lat="45.24943" lon="6.46622">
        <ele>1270.1</ele>
        <time>2016-04-04T15:58:20Z</time>
      </trkpt>
      <trkpt lat="45.24934" lon="6.46617">
        <ele>1269.1</ele>
        <time>2016-04-04T15:58:24Z</time>
      </trkpt>
      <trkpt lat="45.24928" lon="6.46613">
        <ele>1268.5</ele>
        <time>2016-04-04T15:58:28Z</time>
      </trkpt>
      <trkpt lat="45.24923" lon="6.46605">
        <ele>1268.8</ele>
        <time>2016-04-04T15:58:32Z</time>
      </trkpt>
      <trkpt lat="45.24918" lon="6.46596">
        <ele>1269.2</ele>
        <time>2016-04-04T15:58:36Z</time>
      </trkpt>
      <trkpt lat="45.24914" lon="6.46588">
        <ele>1269.5</ele>
        <time>2016-04-04T15:58:40Z</time>
      </trkpt>
      <trkpt lat="45.24911" lon="6.46577">
        <ele>1269.9</ele>
        <time>2016-04-04T15:58:44Z</time>
      </trkpt>
      <trkpt lat="45.24909" lon="6.46567">
        <ele>1270.5</ele>
        <time>2016-04-04T15:58:48Z</time>
      </trkpt>
      <trkpt lat="45.24907" lon="6.46558">
        <ele>1270.7</ele>
        <time>2016-04-04T15:58:52Z</time>
      </trkpt>
      <trkpt lat="45.24905" lon="6.46545">
        <ele>1271.4</ele>
        <time>2016-04-04T15:58:56Z</time>
      </trkpt>
      <trkpt lat="45.24904" lon="6.46537">
        <ele>1271.6</ele>
        <time>2016-04-04T15:59:00Z</time>
      </trkpt>
      <trkpt lat="45.249" lon="6.46527">
        <ele>1271.7</ele>
        <time>2016-04-04T15:59:04Z</time>
      </trkpt>
      <trkpt lat="45.24899" lon="6.46517">
        <ele>1272.3</ele>
        <time>2016-04-04T15:59:08Z</time>
      </trkpt>
      <trkpt lat="45.24898" lon="6.46505">
        <ele>1273.1</ele>
        <time>2016-04-04T15:59:12Z</time>
      </trkpt>
      <trkpt lat="45.24894" lon="6.46496">
        <ele>1272.5</ele>
        <time>2016-04-04T15:59:16Z</time>
      </trkpt>
      <trkpt lat="45.24891" lon="6.46483">
        <ele>1271.8</ele>
        <time>2016-04-04T15:59:20Z</time>
      </trkpt>
      <trkpt lat="45.24886" lon="6.46473">
        <ele>1270.7</ele>
        <time>2016-04-04T15:59:24Z</time>
      </trkpt>
      <trkpt lat="45.24879" lon="6.46463">
        <ele>1269.3</ele>
        <time>2016-04-04T15:59:28Z</time>
      </trkpt>
      <trkpt lat="45.2487" lon="6.46453">
        <ele>1268.1</ele>
        <time>2016-04-04T15:59:32Z</time>
      </trkpt>
      <trkpt lat="45.24868" lon="6.4644">
        <ele>1268.1</ele>
        <time>2016-04-04T15:59:36Z</time>
      </trkpt>
      <trkpt lat="45.24867" lon="6.46434">
        <ele>1268.1</ele>
        <time>2016-04-04T15:59:40Z</time>
      </trkpt>
      <trkpt lat="45.24869" lon="6.46439">
        <ele>1268.2</ele>
        <time>2016-04-04T15:59:48Z</time>
      </trkpt>
      <trkpt lat="45.24875" lon="6.46438">
        <ele>1269.2</ele>
        <time>2016-04-04T15:59:52Z</time>
      </trkpt>
      <trkpt lat="45.24883" lon="6.46443">
        <ele>1270.2</ele>
        <time>2016-04-04T15:59:56Z</time>
      </trkpt>
      <trkpt lat="45.24889" lon="6.4645">
        <ele>1271.1</ele>
        <time>2016-04-04T16:00:00Z</time>
      </trkpt>
      <trkpt lat="45.24895" lon="6.46457">
        <ele>1272.2</ele>
        <time>2016-04-04T16:00:04Z</time>
      </trkpt>
      <trkpt lat="45.249" lon="6.46466">
        <ele>1273.2</ele>
        <time>2016-04-04T16:00:08Z</time>
      </trkpt>
      <trkpt lat="45.24905" lon="6.46474">
        <ele>1274.4</ele>
        <time>2016-04-04T16:00:12Z</time>
      </trkpt>
      <trkpt lat="45.24911" lon="6.46481">
        <ele>1275.8</ele>
        <time>2016-04-04T16:00:16Z</time>
      </trkpt>
      <trkpt lat="45.24916" lon="6.46491">
        <ele>1277.3</ele>
        <time>2016-04-04T16:00:20Z</time>
      </trkpt>
      <trkpt lat="45.24922" lon="6.465">
        <ele>1278.4</ele>
        <time>2016-04-04T16:00:24Z</time>
      </trkpt>
      <trkpt lat="45.24929" lon="6.46509">
        <ele>1278.4</ele>
        <time>2016-04-04T16:00:28Z</time>
      </trkpt>
      <trkpt lat="45.24935" lon="6.46518">
        <ele>1278.4</ele>
        <time>2016-04-04T16:00:32Z</time>
      </trkpt>
      <trkpt lat="45.24941" lon="6.46528">
        <ele>1278.4</ele>
        <time>2016-04-04T16:00:36Z</time>
      </trkpt>
      <trkpt lat="45.24946" lon="6.46538">
        <ele>1278.5</ele>
        <time>2016-04-04T16:00:40Z</time>
      </trkpt>
      <trkpt lat="45.24951" lon="6.46547">
        <ele>1278.6</ele>
        <time>2016-04-04T16:00:44Z</time>
      </trkpt>
      <trkpt lat="45.24957" lon="6.4655">
        <ele>1279.3</ele>
        <time>2016-04-04T16:00:48Z</time>
      </trkpt>
      <trkpt lat="45.24963" lon="6.46559">
        <ele>1279.8</ele>
        <time>2016-04-04T16:00:52Z</time>
      </trkpt>
      <trkpt lat="45.2497" lon="6.46568">
        <ele>1280.4</ele>
        <time>2016-04-04T16:00:56Z</time>
      </trkpt>
      <trkpt lat="45.24979" lon="6.46576">
        <ele>1281.7</ele>
        <time>2016-04-04T16:01:00Z</time>
      </trkpt>
      <trkpt lat="45.24988" lon="6.46585">
        <ele>1282.8</ele>
        <time>2016-04-04T16:01:04Z</time>
      </trkpt>
      <trkpt lat="45.24996" lon="6.46593">
        <ele>1283.3</ele>
        <time>2016-04-04T16:01:08Z</time>
      </trkpt>
      <trkpt lat="45.25004" lon="6.466">
        <ele>1284</ele>
        <time>2016-04-04T16:01:12Z</time>
      </trkpt>
      <trkpt lat="45.2501" lon="6.46608">
        <ele>1284.1</ele>
        <time>2016-04-04T16:01:16Z</time>
      </trkpt>
      <trkpt lat="45.25017" lon="6.46618">
        <ele>1284.7</ele>
        <time>2016-04-04T16:01:20Z</time>
      </trkpt>
      <trkpt lat="45.25023" lon="6.46627">
        <ele>1285.3</ele>
        <time>2016-04-04T16:01:24Z</time>
      </trkpt>
      <trkpt lat="45.2503" lon="6.46637">
        <ele>1286.5</ele>
        <time>2016-04-04T16:01:28Z</time>
      </trkpt>
      <trkpt lat="45.25036" lon="6.46636">
        <ele>1287.8</ele>
        <time>2016-04-04T16:01:32Z</time>
      </trkpt>
      <trkpt lat="45.2504" lon="6.46628">
        <ele>1288.7</ele>
        <time>2016-04-04T16:01:36Z</time>
      </trkpt>
      <trkpt lat="45.25036" lon="6.46616">
        <ele>1288.1</ele>
        <time>2016-04-04T16:01:40Z</time>
      </trkpt>
      <trkpt lat="45.25031" lon="6.46607">
        <ele>1287.5</ele>
        <time>2016-04-04T16:01:44Z</time>
      </trkpt>
      <trkpt lat="45.25024" lon="6.46594">
        <ele>1286.9</ele>
        <time>2016-04-04T16:01:48Z</time>
      </trkpt>
      <trkpt lat="45.25017" lon="6.46583">
        <ele>1286.7</ele>
        <time>2016-04-04T16:01:52Z</time>
      </trkpt>
      <trkpt lat="45.25011" lon="6.46573">
        <ele>1285.8</ele>
        <time>2016-04-04T16:01:56Z</time>
      </trkpt>
      <trkpt lat="45.25003" lon="6.46564">
        <ele>1285.2</ele>
        <time>2016-04-04T16:02:00Z</time>
      </trkpt>
      <trkpt lat="45.25002" lon="6.46551">
        <ele>1285.1</ele>
        <time>2016-04-04T16:02:04Z</time>
      </trkpt>
      <trkpt lat="45.25011" lon="6.46548">
        <ele>1285.4</ele>
        <time>2016-04-04T16:02:08Z</time>
      </trkpt>
      <trkpt lat="45.25017" lon="6.46559">
        <ele>1285.9</ele>
        <time>2016-04-04T16:02:12Z</time>
      </trkpt>
      <trkpt lat="45.25025" lon="6.4657">
        <ele>1286.8</ele>
        <time>2016-04-04T16:02:16Z</time>
      </trkpt>
      <trkpt lat="45.25031" lon="6.46581">
        <ele>1287.9</ele>
        <time>2016-04-04T16:02:20Z</time>
      </trkpt>
      <trkpt lat="45.25037" lon="6.46591">
        <ele>1288.5</ele>
        <time>2016-04-04T16:02:24Z</time>
      </trkpt>
      <trkpt lat="45.25042" lon="6.466">
        <ele>1289.1</ele>
        <time>2016-04-04T16:02:28Z</time>
      </trkpt>
      <trkpt lat="45.25047" lon="6.46606">
        <ele>1289.8</ele>
        <time>2016-04-04T16:02:32Z</time>
      </trkpt>
      <trkpt lat="45.25054" lon="6.46613">
        <ele>1291.1</ele>
        <time>2016-04-04T16:02:36Z</time>
      </trkpt>
      <trkpt lat="45.25058" lon="6.46624">
        <ele>1292.2</ele>
        <time>2016-04-04T16:02:40Z</time>
      </trkpt>
      <trkpt lat="45.25064" lon="6.46632">
        <ele>1293.6</ele>
        <time>2016-04-04T16:02:44Z</time>
      </trkpt>
      <trkpt lat="45.2507" lon="6.46641">
        <ele>1295.4</ele>
        <time>2016-04-04T16:02:48Z</time>
      </trkpt>
      <trkpt lat="45.25075" lon="6.46649">
        <ele>1297.2</ele>
        <time>2016-04-04T16:02:52Z</time>
      </trkpt>
      <trkpt lat="45.25081" lon="6.46657">
        <ele>1299.4</ele>
        <time>2016-04-04T16:02:56Z</time>
      </trkpt>
      <trkpt lat="45.25085" lon="6.46667">
        <ele>1301.3</ele>
        <time>2016-04-04T16:03:00Z</time>
      </trkpt>
      <trkpt lat="45.25091" lon="6.46679">
        <ele>1303</ele>
        <time>2016-04-04T16:03:04Z</time>
      </trkpt>
      <trkpt lat="45.25092" lon="6.46691">
        <ele>1304.2</ele>
        <time>2016-04-04T16:03:08Z</time>
      </trkpt>
      <trkpt lat="45.25093" lon="6.46703">
        <ele>1305.3</ele>
        <time>2016-04-04T16:03:12Z</time>
      </trkpt>
      <trkpt lat="45.25096" lon="6.46714">
        <ele>1307</ele>
        <time>2016-04-04T16:03:16Z</time>
      </trkpt>
      <trkpt lat="45.25096" lon="6.46727">
        <ele>1308.1</ele>
        <time>2016-04-04T16:03:20Z</time>
      </trkpt>
      <trkpt lat="45.25097" lon="6.46738">
        <ele>1309.5</ele>
        <time>2016-04-04T16:03:24Z</time>
      </trkpt>
      <trkpt lat="45.25095" lon="6.46749">
        <ele>1309.8</ele>
        <time>2016-04-04T16:03:28Z</time>
      </trkpt>
      <trkpt lat="45.25097" lon="6.46757">
        <ele>1310.6</ele>
        <time>2016-04-04T16:03:32Z</time>
      </trkpt>
      <trkpt lat="45.25099" lon="6.4677">
        <ele>1311.5</ele>
        <time>2016-04-04T16:03:36Z</time>
      </trkpt>
      <trkpt lat="45.251" lon="6.4678">
        <ele>1311.8</ele>
        <time>2016-04-04T16:03:40Z</time>
      </trkpt>
      <trkpt lat="45.251" lon="6.46792">
        <ele>1312.3</ele>
        <time>2016-04-04T16:03:44Z</time>
      </trkpt>
      <trkpt lat="45.251" lon="6.46803">
        <ele>1312.4</ele>
        <time>2016-04-04T16:03:48Z</time>
      </trkpt>
      <trkpt lat="45.25104" lon="6.46811">
        <ele>1313.7</ele>
        <time>2016-04-04T16:03:52Z</time>
      </trkpt>
      <trkpt lat="45.25103" lon="6.46823">
        <ele>1313.8</ele>
        <time>2016-04-04T16:03:56Z</time>
      </trkpt>
      <trkpt lat="45.25105" lon="6.46833">
        <ele>1314.5</ele>
        <time>2016-04-04T16:04:00Z</time>
      </trkpt>
      <trkpt lat="45.25107" lon="6.46843">
        <ele>1314.9</ele>
        <time>2016-04-04T16:04:04Z</time>
      </trkpt>
      <trkpt lat="45.25107" lon="6.46853">
        <ele>1314.4</ele>
        <time>2016-04-04T16:04:08Z</time>
      </trkpt>
      <trkpt lat="45.2511" lon="6.46865">
        <ele>1314.7</ele>
        <time>2016-04-04T16:04:12Z</time>
      </trkpt>
      <trkpt lat="45.25111" lon="6.46876">
        <ele>1314.6</ele>
        <time>2016-04-04T16:04:16Z</time>
      </trkpt>
      <trkpt lat="45.25115" lon="6.46885">
        <ele>1315.7</ele>
        <time>2016-04-04T16:04:20Z</time>
      </trkpt>
      <trkpt lat="45.25119" lon="6.46893">
        <ele>1316.7</ele>
        <time>2016-04-04T16:04:24Z</time>
      </trkpt>
      <trkpt lat="45.25124" lon="6.46903">
        <ele>1317.7</ele>
        <time>2016-04-04T16:04:28Z</time>
      </trkpt>
      <trkpt lat="45.25129" lon="6.46914">
        <ele>1318.9</ele>
        <time>2016-04-04T16:04:32Z</time>
      </trkpt>
      <trkpt lat="45.25133" lon="6.4692">
        <ele>1320.3</ele>
        <time>2016-04-04T16:04:36Z</time>
      </trkpt>
      <trkpt lat="45.25138" lon="6.46927">
        <ele>1322</ele>
        <time>2016-04-04T16:04:40Z</time>
      </trkpt>
      <trkpt lat="45.25139" lon="6.46936">
        <ele>1322.5</ele>
        <time>2016-04-04T16:04:44Z</time>
      </trkpt>
      <trkpt lat="45.25144" lon="6.46946">
        <ele>1323.9</ele>
        <time>2016-04-04T16:04:48Z</time>
      </trkpt>
      <trkpt lat="45.25147" lon="6.46956">
        <ele>1325</ele>
        <time>2016-04-04T16:04:52Z</time>
      </trkpt>
      <trkpt lat="45.25149" lon="6.46969">
        <ele>1325.4</ele>
        <time>2016-04-04T16:04:56Z</time>
      </trkpt>
      <trkpt lat="45.25151" lon="6.46978">
        <ele>1326</ele>
        <time>2016-04-04T16:05:00Z</time>
      </trkpt>
      <trkpt lat="45.25154" lon="6.46987">
        <ele>1326.6</ele>
        <time>2016-04-04T16:05:04Z</time>
      </trkpt>
      <trkpt lat="45.25157" lon="6.47">
        <ele>1327.4</ele>
        <time>2016-04-04T16:05:08Z</time>
      </trkpt>
      <trkpt lat="45.2516" lon="6.4701">
        <ele>1328.3</ele>
        <time>2016-04-04T16:05:12Z</time>
      </trkpt>
      <trkpt lat="45.25165" lon="6.47023">
        <ele>1329.4</ele>
        <time>2016-04-04T16:05:16Z</time>
      </trkpt>
      <trkpt lat="45.25171" lon="6.47034">
        <ele>1330.8</ele>
        <time>2016-04-04T16:05:20Z</time>
      </trkpt>
      <trkpt lat="45.25177" lon="6.47045">
        <ele>1332.5</ele>
        <time>2016-04-04T16:05:24Z</time>
      </trkpt>
      <trkpt lat="45.25182" lon="6.47059">
        <ele>1333.9</ele>
        <time>2016-04-04T16:05:28Z</time>
      </trkpt>
      <trkpt lat="45.25188" lon="6.47072">
        <ele>1335.3</ele>
        <time>2016-04-04T16:05:32Z</time>
      </trkpt>
      <trkpt lat="45.25195" lon="6.47084">
        <ele>1337.1</ele>
        <time>2016-04-04T16:05:36Z</time>
      </trkpt>
      <trkpt lat="45.25197" lon="6.47098">
        <ele>1338.3</ele>
        <time>2016-04-04T16:05:40Z</time>
      </trkpt>
      <trkpt lat="45.25201" lon="6.4711">
        <ele>1339.5</ele>
        <time>2016-04-04T16:05:44Z</time>
      </trkpt>
      <trkpt lat="45.25203" lon="6.47126">
        <ele>1340.5</ele>
        <time>2016-04-04T16:05:48Z</time>
      </trkpt>
      <trkpt lat="45.25206" lon="6.47138">
        <ele>1341.4</ele>
        <time>2016-04-04T16:05:52Z</time>
      </trkpt>
      <trkpt lat="45.25208" lon="6.47151">
        <ele>1342.2</ele>
        <time>2016-04-04T16:05:56Z</time>
      </trkpt>
      <trkpt lat="45.2521" lon="6.47164">
        <ele>1343</ele>
        <time>2016-04-04T16:06:00Z</time>
      </trkpt>
      <trkpt lat="45.25211" lon="6.47176">
        <ele>1343.9</ele>
        <time>2016-04-04T16:06:04Z</time>
      </trkpt>
      <trkpt lat="45.25212" lon="6.4719">
        <ele>1345.2</ele>
        <time>2016-04-04T16:06:08Z</time>
      </trkpt>
      <trkpt lat="45.25212" lon="6.47201">
        <ele>1346</ele>
        <time>2016-04-04T16:06:12Z</time>
      </trkpt>
      <trkpt lat="45.25209" lon="6.47209">
        <ele>1346.1</ele>
        <time>2016-04-04T16:06:16Z</time>
      </trkpt>
      <trkpt lat="45.252" lon="6.47219">
        <ele>1345.6</ele>
        <time>2016-04-04T16:06:20Z</time>
      </trkpt>
      <trkpt lat="45.2519" lon="6.47224">
        <ele>1344.6</ele>
        <time>2016-04-04T16:06:24Z</time>
      </trkpt>
      <trkpt lat="45.25179" lon="6.47222">
        <ele>1342.7</ele>
        <time>2016-04-04T16:06:28Z</time>
      </trkpt>
      <trkpt lat="45.25171" lon="6.47214">
        <ele>1340.6</ele>
        <time>2016-04-04T16:06:32Z</time>
      </trkpt>
      <trkpt lat="45.25167" lon="6.47206">
        <ele>1338.7</ele>
        <time>2016-04-04T16:06:36Z</time>
      </trkpt>
      <trkpt lat="45.2516" lon="6.47201">
        <ele>1338</ele>
        <time>2016-04-04T16:06:40Z</time>
      </trkpt>
      <trkpt lat="45.25152" lon="6.47191">
        <ele>1336.8</ele>
        <time>2016-04-04T16:06:44Z</time>
      </trkpt>
      <trkpt lat="45.25143" lon="6.47185">
        <ele>1336.1</ele>
        <time>2016-04-04T16:06:48Z</time>
      </trkpt>
      <trkpt lat="45.25131" lon="6.47175">
        <ele>1335</ele>
        <time>2016-04-04T16:06:52Z</time>
      </trkpt>
      <trkpt lat="45.25115" lon="6.47172">
        <ele>1335</ele>
        <time>2016-04-04T16:06:56Z</time>
      </trkpt>
      <trkpt lat="45.25099" lon="6.47175">
        <ele>1335.6</ele>
        <time>2016-04-04T16:07:00Z</time>
      </trkpt>
      <trkpt lat="45.25087" lon="6.47174">
        <ele>1335.8</ele>
        <time>2016-04-04T16:07:04Z</time>
      </trkpt>
      <trkpt lat="45.25077" lon="6.47177">
        <ele>1336</ele>
        <time>2016-04-04T16:07:08Z</time>
      </trkpt>
      <trkpt lat="45.25065" lon="6.47184">
        <ele>1336.3</ele>
        <time>2016-04-04T16:07:12Z</time>
      </trkpt>
      <trkpt lat="45.25055" lon="6.4719">
        <ele>1336.5</ele>
        <time>2016-04-04T16:07:16Z</time>
      </trkpt>
      <trkpt lat="45.25048" lon="6.47194">
        <ele>1336.7</ele>
        <time>2016-04-04T16:07:20Z</time>
      </trkpt>
      <trkpt lat="45.2504" lon="6.472">
        <ele>1336.8</ele>
        <time>2016-04-04T16:07:24Z</time>
      </trkpt>
      <trkpt lat="45.25028" lon="6.47207">
        <ele>1336.9</ele>
        <time>2016-04-04T16:07:28Z</time>
      </trkpt>
      <trkpt lat="45.25018" lon="6.47218">
        <ele>1337.4</ele>
        <time>2016-04-04T16:07:32Z</time>
      </trkpt>
      <trkpt lat="45.25013" lon="6.47227">
        <ele>1337.9</ele>
        <time>2016-04-04T16:07:36Z</time>
      </trkpt>
      <trkpt lat="45.2501" lon="6.47231">
        <ele>1338</ele>
        <time>2016-04-04T16:07:40Z</time>
      </trkpt>
      <trkpt lat="45.25" lon="6.4724">
        <ele>1338.1</ele>
        <time>2016-04-04T16:07:44Z</time>
      </trkpt>
      <trkpt lat="45.24995" lon="6.47244">
        <ele>1338</ele>
        <time>2016-04-04T16:07:48Z</time>
      </trkpt>
      <trkpt lat="45.2499" lon="6.47256">
        <ele>1338.5</ele>
        <time>2016-04-04T16:07:52Z</time>
      </trkpt>
      <trkpt lat="45.24983" lon="6.47264">
        <ele>1338.7</ele>
        <time>2016-04-04T16:07:56Z</time>
      </trkpt>
      <trkpt lat="45.24977" lon="6.47276">
        <ele>1339.6</ele>
        <time>2016-04-04T16:08:00Z</time>
      </trkpt>
      <trkpt lat="45.2497" lon="6.47288">
        <ele>1340.4</ele>
        <time>2016-04-04T16:08:04Z</time>
      </trkpt>
      <trkpt lat="45.24965" lon="6.47298">
        <ele>1341.3</ele>
        <time>2016-04-04T16:08:08Z</time>
      </trkpt>
      <trkpt lat="45.24958" lon="6.47309">
        <ele>1342.2</ele>
        <time>2016-04-04T16:08:12Z</time>
      </trkpt>
      <trkpt lat="45.24952" lon="6.4731">
        <ele>1341.7</ele>
        <time>2016-04-04T16:08:16Z</time>
      </trkpt>
      <trkpt lat="45.24943" lon="6.47305">
        <ele>1340.2</ele>
        <time>2016-04-04T16:08:28Z</time>
      </trkpt>
      <trkpt lat="45.24931" lon="6.47286">
        <ele>1336.1</ele>
        <time>2016-04-04T16:08:32Z</time>
      </trkpt>
      <trkpt lat="45.24921" lon="6.47269">
        <ele>1332.5</ele>
        <time>2016-04-04T16:08:36Z</time>
      </trkpt>
      <trkpt lat="45.24911" lon="6.47264">
        <ele>1331</ele>
        <time>2016-04-04T16:08:40Z</time>
      </trkpt>
      <trkpt lat="45.24895" lon="6.47263">
        <ele>1330.1</ele>
        <time>2016-04-04T16:08:44Z</time>
      </trkpt>
      <trkpt lat="45.24888" lon="6.47259">
        <ele>1329.1</ele>
        <time>2016-04-04T16:08:48Z</time>
      </trkpt>
      <trkpt lat="45.24883" lon="6.47259">
        <ele>1328.9</ele>
        <time>2016-04-04T16:08:52Z</time>
      </trkpt>
      <trkpt lat="45.24878" lon="6.47261">
        <ele>1329.2</ele>
        <time>2016-04-04T16:09:00Z</time>
      </trkpt>
      <trkpt lat="45.2487" lon="6.47263">
        <ele>1329.1</ele>
        <time>2016-04-04T16:09:04Z</time>
      </trkpt>
      <trkpt lat="45.2486" lon="6.47266">
        <ele>1329.4</ele>
        <time>2016-04-04T16:09:08Z</time>
      </trkpt>
      <trkpt lat="45.24849" lon="6.47269">
        <ele>1329.4</ele>
        <time>2016-04-04T16:09:12Z</time>
      </trkpt>
      <trkpt lat="45.24838" lon="6.47267">
        <ele>1328.6</ele>
        <time>2016-04-04T16:09:16Z</time>
      </trkpt>
      <trkpt lat="45.24824" lon="6.47261">
        <ele>1328.1</ele>
        <time>2016-04-04T16:09:20Z</time>
      </trkpt>
      <trkpt lat="45.2481" lon="6.47255">
        <ele>1327.8</ele>
        <time>2016-04-04T16:09:24Z</time>
      </trkpt>
      <trkpt lat="45.24795" lon="6.47248">
        <ele>1327.5</ele>
        <time>2016-04-04T16:09:28Z</time>
      </trkpt>
      <trkpt lat="45.24778" lon="6.47246">
        <ele>1328.2</ele>
        <time>2016-04-04T16:09:32Z</time>
      </trkpt>
      <trkpt lat="45.24758" lon="6.47242">
        <ele>1328.8</ele>
        <time>2016-04-04T16:09:36Z</time>
      </trkpt>
      <trkpt lat="45.24742" lon="6.47238">
        <ele>1330.1</ele>
        <time>2016-04-04T16:09:40Z</time>
      </trkpt>
      <trkpt lat="45.24729" lon="6.47233">
        <ele>1331.7</ele>
        <time>2016-04-04T16:09:44Z</time>
      </trkpt>
      <trkpt lat="45.24721" lon="6.47229">
        <ele>1332.4</ele>
        <time>2016-04-04T16:09:48Z</time>
      </trkpt>
      <trkpt lat="45.24715" lon="6.47224">
        <ele>1332.5</ele>
        <time>2016-04-04T16:09:52Z</time>
      </trkpt>
      <trkpt lat="45.24702" lon="6.47215">
        <ele>1333.3</ele>
        <time>2016-04-04T16:09:56Z</time>
      </trkpt>
      <trkpt lat="45.24694" lon="6.47204">
        <ele>1332.7</ele>
        <time>2016-04-04T16:10:00Z</time>
      </trkpt>
      <trkpt lat="45.24678" lon="6.47195">
        <ele>1334.2</ele>
        <time>2016-04-04T16:10:04Z</time>
      </trkpt>
      <trkpt lat="45.24667" lon="6.47185">
        <ele>1334.5</ele>
        <time>2016-04-04T16:10:08Z</time>
      </trkpt>
      <trkpt lat="45.24655" lon="6.47175">
        <ele>1333.8</ele>
        <time>2016-04-04T16:10:12Z</time>
      </trkpt>
      <trkpt lat="45.24644" lon="6.47165">
        <ele>1332.7</ele>
        <time>2016-04-04T16:10:16Z</time>
      </trkpt>
      <trkpt lat="45.24631" lon="6.47161">
        <ele>1332.9</ele>
        <time>2016-04-04T16:10:20Z</time>
      </trkpt>
      <trkpt lat="45.24621" lon="6.47159">
        <ele>1333.5</ele>
        <time>2016-04-04T16:10:24Z</time>
      </trkpt>
      <trkpt lat="45.24613" lon="6.47155">
        <ele>1333.4</ele>
        <time>2016-04-04T16:10:28Z</time>
      </trkpt>
      <trkpt lat="45.24603" lon="6.47153">
        <ele>1333.8</ele>
        <time>2016-04-04T16:10:32Z</time>
      </trkpt>
      <trkpt lat="45.24593" lon="6.47152">
        <ele>1334.3</ele>
        <time>2016-04-04T16:10:36Z</time>
      </trkpt>
      <trkpt lat="45.24583" lon="6.47151">
        <ele>1335</ele>
        <time>2016-04-04T16:10:40Z</time>
      </trkpt>
      <trkpt lat="45.24575" lon="6.47151">
        <ele>1334.1</ele>
        <time>2016-04-04T16:10:44Z</time>
      </trkpt>
      <trkpt lat="45.24567" lon="6.47154">
        <ele>1334</ele>
        <time>2016-04-04T16:10:48Z</time>
      </trkpt>
      <trkpt lat="45.24559" lon="6.47157">
        <ele>1333.8</ele>
        <time>2016-04-04T16:10:52Z</time>
      </trkpt>
      <trkpt lat="45.24552" lon="6.47162">
        <ele>1334.4</ele>
        <time>2016-04-04T16:10:56Z</time>
      </trkpt>
      <trkpt lat="45.24544" lon="6.47165">
        <ele>1334.4</ele>
        <time>2016-04-04T16:11:00Z</time>
      </trkpt>
      <trkpt lat="45.2454" lon="6.47172">
        <ele>1335.2</ele>
        <time>2016-04-04T16:11:04Z</time>
      </trkpt>
      <trkpt lat="45.24531" lon="6.47177">
        <ele>1335</ele>
        <time>2016-04-04T16:11:08Z</time>
      </trkpt>
      <trkpt lat="45.24523" lon="6.47183">
        <ele>1335.3</ele>
        <time>2016-04-04T16:11:12Z</time>
      </trkpt>
      <trkpt lat="45.24515" lon="6.47192">
        <ele>1335.8</ele>
        <time>2016-04-04T16:11:16Z</time>
      </trkpt>
      <trkpt lat="45.24505" lon="6.47202">
        <ele>1336.4</ele>
        <time>2016-04-04T16:11:20Z</time>
      </trkpt>
      <trkpt lat="45.24496" lon="6.47214">
        <ele>1336.9</ele>
        <time>2016-04-04T16:11:24Z</time>
      </trkpt>
      <trkpt lat="45.24487" lon="6.4723">
        <ele>1337.3</ele>
        <time>2016-04-04T16:11:28Z</time>
      </trkpt>
      <trkpt lat="45.24473" lon="6.47248">
        <ele>1337</ele>
        <time>2016-04-04T16:11:32Z</time>
      </trkpt>
      <trkpt lat="45.24459" lon="6.47262">
        <ele>1335.2</ele>
        <time>2016-04-04T16:11:36Z</time>
      </trkpt>
      <trkpt lat="45.24451" lon="6.47273">
        <ele>1334.7</ele>
        <time>2016-04-04T16:11:40Z</time>
      </trkpt>
      <trkpt lat="45.24441" lon="6.47287">
        <ele>1334.4</ele>
        <time>2016-04-04T16:11:44Z</time>
      </trkpt>
      <trkpt lat="45.24428" lon="6.47302">
        <ele>1334</ele>
        <time>2016-04-04T16:11:48Z</time>
      </trkpt>
      <trkpt lat="45.24415" lon="6.47308">
        <ele>1332.1</ele>
        <time>2016-04-04T16:11:52Z</time>
      </trkpt>
      <trkpt lat="45.244" lon="6.47319">
        <ele>1330.1</ele>
        <time>2016-04-04T16:11:56Z</time>
      </trkpt>
      <trkpt lat="45.24393" lon="6.47336">
        <ele>1331.5</ele>
        <time>2016-04-04T16:12:00Z</time>
      </trkpt>
      <trkpt lat="45.24386" lon="6.47351">
        <ele>1332.5</ele>
        <time>2016-04-04T16:12:04Z</time>
      </trkpt>
      <trkpt lat="45.24379" lon="6.47373">
        <ele>1333.9</ele>
        <time>2016-04-04T16:12:08Z</time>
      </trkpt>
      <trkpt lat="45.24372" lon="6.47393">
        <ele>1335.1</ele>
        <time>2016-04-04T16:12:12Z</time>
      </trkpt>
      <trkpt lat="45.24364" lon="6.47403">
        <ele>1334.5</ele>
        <time>2016-04-04T16:12:16Z</time>
      </trkpt>
      <trkpt lat="45.24339" lon="6.47414">
        <ele>1328.6</ele>
        <time>2016-04-04T16:13:56Z</time>
      </trkpt>
      <trkpt lat="45.24314" lon="6.47418">
        <ele>1322.4</ele>
        <time>2016-04-04T16:14:00Z</time>
      </trkpt>
      <trkpt lat="45.24296" lon="6.47412">
        <ele>1316.5</ele>
        <time>2016-04-04T16:14:04Z</time>
      </trkpt>
      <trkpt lat="45.24279" lon="6.47392">
        <ele>1307.6</ele>
        <time>2016-04-04T16:14:08Z</time>
      </trkpt>
      <trkpt lat="45.24261" lon="6.47366">
        <ele>1295.9</ele>
        <time>2016-04-04T16:14:12Z</time>
      </trkpt>
      <trkpt lat="45.24247" lon="6.47365">
        <ele>1291.2</ele>
        <time>2016-04-04T16:14:16Z</time>
      </trkpt>
      <trkpt lat="45.24233" lon="6.47361">
        <ele>1287.8</ele>
        <time>2016-04-04T16:14:20Z</time>
      </trkpt>
      <trkpt lat="45.24214" lon="6.47358">
        <ele>1283.8</ele>
        <time>2016-04-04T16:14:24Z</time>
      </trkpt>
      <trkpt lat="45.24199" lon="6.47354">
        <ele>1280.5</ele>
        <time>2016-04-04T16:14:28Z</time>
      </trkpt>
      <trkpt lat="45.24188" lon="6.47353">
        <ele>1278.5</ele>
        <time>2016-04-04T16:14:32Z</time>
      </trkpt>
      <trkpt lat="45.24187" lon="6.47324">
        <ele>1270.7</ele>
        <time>2016-04-04T16:14:36Z</time>
      </trkpt>
      <trkpt lat="45.24175" lon="6.47295">
        <ele>1261.6</ele>
        <time>2016-04-04T16:14:40Z</time>
      </trkpt>
      <trkpt lat="45.2416" lon="6.47273">
        <ele>1253.7</ele>
        <time>2016-04-04T16:14:44Z</time>
      </trkpt>
      <trkpt lat="45.24161" lon="6.47241">
        <ele>1245.5</ele>
        <time>2016-04-04T16:14:48Z</time>
      </trkpt>
      <trkpt lat="45.24162" lon="6.47214">
        <ele>1238.3</ele>
        <time>2016-04-04T16:14:52Z</time>
      </trkpt>
      <trkpt lat="45.2415" lon="6.472">
        <ele>1232</ele>
        <time>2016-04-04T16:14:56Z</time>
      </trkpt>
      <trkpt lat="45.24123" lon="6.47184">
        <ele>1222.1</ele>
        <time>2016-04-04T16:15:00Z</time>
      </trkpt>
      <trkpt lat="45.24101" lon="6.47176">
        <ele>1215.5</ele>
        <time>2016-04-04T16:15:04Z</time>
      </trkpt>
      <trkpt lat="45.24098" lon="6.47165">
        <ele>1211.7</ele>
        <time>2016-04-04T16:15:08Z</time>
      </trkpt>
      <trkpt lat="45.24104" lon="6.47137">
        <ele>1205.1</ele>
        <time>2016-04-04T16:15:16Z</time>
      </trkpt>
      <trkpt lat="45.24116" lon="6.47104">
        <ele>1198.7</ele>
        <time>2016-04-04T16:15:20Z</time>
      </trkpt>
      <trkpt lat="45.24135" lon="6.4707">
        <ele>1193.9</ele>
        <time>2016-04-04T16:15:24Z</time>
      </trkpt>
      <trkpt lat="45.24153" lon="6.47045">
        <ele>1191.6</ele>
        <time>2016-04-04T16:15:28Z</time>
      </trkpt>
      <trkpt lat="45.24168" lon="6.47021">
        <ele>1188.5</ele>
        <time>2016-04-04T16:15:32Z</time>
      </trkpt>
      <trkpt lat="45.24186" lon="6.4699">
        <ele>1185.4</ele>
        <time>2016-04-04T16:15:36Z</time>
      </trkpt>
      <trkpt lat="45.24198" lon="6.46975">
        <ele>1184.8</ele>
        <time>2016-04-04T16:15:40Z</time>
      </trkpt>
      <trkpt lat="45.24203" lon="6.46976">
        <ele>1186</ele>
        <time>2016-04-04T16:15:44Z</time>
      </trkpt>
      <trkpt lat="45.24206" lon="6.46976">
        <ele>1186.5</ele>
        <time>2016-04-04T16:15:48Z</time>
      </trkpt>
      <trkpt lat="45.24196" lon="6.46973">
        <ele>1184</ele>
        <time>2016-04-04T16:16:12Z</time>
      </trkpt>
      <trkpt lat="45.24187" lon="6.46963">
        <ele>1180.1</ele>
        <time>2016-04-04T16:16:16Z</time>
      </trkpt>
      <trkpt lat="45.24168" lon="6.46962">
        <ele>1177</ele>
        <time>2016-04-04T16:16:20Z</time>
      </trkpt>
      <trkpt lat="45.2415" lon="6.46971">
        <ele>1175.4</ele>
        <time>2016-04-04T16:16:24Z</time>
      </trkpt>
      <trkpt lat="45.24138" lon="6.46977">
        <ele>1174.2</ele>
        <time>2016-04-04T16:16:28Z</time>
      </trkpt>
      <trkpt lat="45.24131" lon="6.46979">
        <ele>1173.4</ele>
        <time>2016-04-04T16:16:32Z</time>
      </trkpt>
      <trkpt lat="45.24123" lon="6.46981">
        <ele>1172.1</ele>
        <time>2016-04-04T16:16:36Z</time>
      </trkpt>
      <trkpt lat="45.24113" lon="6.46992">
        <ele>1171.7</ele>
        <time>2016-04-04T16:16:40Z</time>
      </trkpt>
      <trkpt lat="45.24107" lon="6.4701">
        <ele>1173.9</ele>
        <time>2016-04-04T16:16:44Z</time>
      </trkpt>
      <trkpt lat="45.24104" lon="6.47019">
        <ele>1175.6</ele>
        <time>2016-04-04T16:16:48Z</time>
      </trkpt>
      <trkpt lat="45.2409" lon="6.4703">
        <ele>1175.3</ele>
        <time>2016-04-04T16:17:04Z</time>
      </trkpt>
      <trkpt lat="45.24076" lon="6.47038">
        <ele>1174.4</ele>
        <time>2016-04-04T16:17:08Z</time>
      </trkpt>
      <trkpt lat="45.24069" lon="6.47051">
        <ele>1176</ele>
        <time>2016-04-04T16:17:12Z</time>
      </trkpt>
      <trkpt lat="45.24064" lon="6.4706">
        <ele>1177.1</ele>
        <time>2016-04-04T16:17:16Z</time>
      </trkpt>
      <trkpt lat="45.24063" lon="6.47066">
        <ele>1178.2</ele>
        <time>2016-04-04T16:17:20Z</time>
      </trkpt>
      <trkpt lat="45.24056" lon="6.47077">
        <ele>1179.1</ele>
        <time>2016-04-04T16:17:24Z</time>
      </trkpt>
      <trkpt lat="45.24049" lon="6.47086">
        <ele>1179.7</ele>
        <time>2016-04-04T16:17:28Z</time>
      </trkpt>
      <trkpt lat="45.24039" lon="6.47094">
        <ele>1179.9</ele>
        <time>2016-04-04T16:17:32Z</time>
      </trkpt>
      <trkpt lat="45.24029" lon="6.47104">
        <ele>1180.5</ele>
        <time>2016-04-04T16:17:36Z</time>
      </trkpt>
      <trkpt lat="45.2402" lon="6.47111">
        <ele>1180.5</ele>
        <time>2016-04-04T16:17:40Z</time>
      </trkpt>
      <trkpt lat="45.24015" lon="6.47111">
        <ele>1179.5</ele>
        <time>2016-04-04T16:17:44Z</time>
      </trkpt>
      <trkpt lat="45.2401" lon="6.47119">
        <ele>1180.6</ele>
        <time>2016-04-04T16:17:48Z</time>
      </trkpt>
      <trkpt lat="45.24004" lon="6.47129">
        <ele>1181.9</ele>
        <time>2016-04-04T16:17:52Z</time>
      </trkpt>
      <trkpt lat="45.23998" lon="6.47136">
        <ele>1182.5</ele>
        <time>2016-04-04T16:17:56Z</time>
      </trkpt>
      <trkpt lat="45.23995" lon="6.47142">
        <ele>1183.4</ele>
        <time>2016-04-04T16:18:00Z</time>
      </trkpt>
      <trkpt lat="45.23984" lon="6.47152">
        <ele>1183.3</ele>
        <time>2016-04-04T16:18:04Z</time>
      </trkpt>
      <trkpt lat="45.23979" lon="6.47158">
        <ele>1183.8</ele>
        <time>2016-04-04T16:18:08Z</time>
      </trkpt>
      <trkpt lat="45.23975" lon="6.47165">
        <ele>1184.6</ele>
        <time>2016-04-04T16:18:12Z</time>
      </trkpt>
      <trkpt lat="45.23967" lon="6.47173">
        <ele>1185</ele>
        <time>2016-04-04T16:18:16Z</time>
      </trkpt>
      <trkpt lat="45.23962" lon="6.47177">
        <ele>1185</ele>
        <time>2016-04-04T16:18:20Z</time>
      </trkpt>
      <trkpt lat="45.23948" lon="6.47196">
        <ele>1186.9</ele>
        <time>2016-04-04T16:18:52Z</time>
      </trkpt>
      <trkpt lat="45.23942" lon="6.47209">
        <ele>1189.1</ele>
        <time>2016-04-04T16:18:56Z</time>
      </trkpt>
      <trkpt lat="45.23934" lon="6.47216">
        <ele>1188.9</ele>
        <time>2016-04-04T16:19:00Z</time>
      </trkpt>
      <trkpt lat="45.23928" lon="6.47221">
        <ele>1189.1</ele>
        <time>2016-04-04T16:19:04Z</time>
      </trkpt>
      <trkpt lat="45.23921" lon="6.47223">
        <ele>1187.8</ele>
        <time>2016-04-04T16:19:08Z</time>
      </trkpt>
      <trkpt lat="45.23907" lon="6.47232">
        <ele>1186.4</ele>
        <time>2016-04-04T16:19:12Z</time>
      </trkpt>
      <trkpt lat="45.23897" lon="6.47244">
        <ele>1187.1</ele>
        <time>2016-04-04T16:19:16Z</time>
      </trkpt>
      <trkpt lat="45.23891" lon="6.47252">
        <ele>1188.2</ele>
        <time>2016-04-04T16:19:20Z</time>
      </trkpt>
      <trkpt lat="45.23876" lon="6.47258">
        <ele>1186.3</ele>
        <time>2016-04-04T16:19:24Z</time>
      </trkpt>
      <trkpt lat="45.23871" lon="6.47264">
        <ele>1187.5</ele>
        <time>2016-04-04T16:19:28Z</time>
      </trkpt>
      <trkpt lat="45.23867" lon="6.47274">
        <ele>1190</ele>
        <time>2016-04-04T16:19:32Z</time>
      </trkpt>
      <trkpt lat="45.23861" lon="6.47279">
        <ele>1190.5</ele>
        <time>2016-04-04T16:19:36Z</time>
      </trkpt>
      <trkpt lat="45.23853" lon="6.47287">
        <ele>1191.2</ele>
        <time>2016-04-04T16:19:44Z</time>
      </trkpt>
      <trkpt lat="45.23849" lon="6.47293">
        <ele>1192.6</ele>
        <time>2016-04-04T16:19:48Z</time>
      </trkpt>
      <trkpt lat="45.23842" lon="6.47301">
        <ele>1193.8</ele>
        <time>2016-04-04T16:19:52Z</time>
      </trkpt>
      <trkpt lat="45.23839" lon="6.47305">
        <ele>1194.7</ele>
        <time>2016-04-04T16:19:56Z</time>
      </trkpt>
      <trkpt lat="45.23824" lon="6.47325">
        <ele>1198.3</ele>
        <time>2016-04-04T16:20:12Z</time>
      </trkpt>
      <trkpt lat="45.2379" lon="6.47382">
        <ele>1209.3</ele>
        <time>2016-04-04T16:23:15Z</time>
      </trkpt>
      <trkpt lat="45.2377" lon="6.47418">
        <ele>1216.8</ele>
        <time>2016-04-04T16:23:43Z</time>
      </trkpt>
      <trkpt lat="45.23766" lon="6.47427">
        <ele>1218.4</ele>
        <time>2016-04-04T16:23:47Z</time>
      </trkpt>
      <trkpt lat="45.23755" lon="6.47448">
        <ele>1221.5</ele>
        <time>2016-04-04T16:23:59Z</time>
      </trkpt>
      <trkpt lat="45.23754" lon="6.47455">
        <ele>1223.4</ele>
        <time>2016-04-04T16:24:03Z</time>
      </trkpt>
      <trkpt lat="45.23739" lon="6.4748">
        <ele>1226</ele>
        <time>2016-04-04T16:24:15Z</time>
      </trkpt>
      <trkpt lat="45.23735" lon="6.47487">
        <ele>1226.8</ele>
        <time>2016-04-04T16:24:19Z</time>
      </trkpt>
      <trkpt lat="45.23692" lon="6.47527">
        <ele>1225.6</ele>
        <time>2016-04-04T16:24:59Z</time>
      </trkpt>
      <trkpt lat="45.23682" lon="6.47534">
        <ele>1225.1</ele>
        <time>2016-04-04T16:25:03Z</time>
      </trkpt>
      <trkpt lat="45.23674" lon="6.4754">
        <ele>1224.6</ele>
        <time>2016-04-04T16:25:07Z</time>
      </trkpt>
      <trkpt lat="45.23663" lon="6.4755">
        <ele>1224.6</ele>
        <time>2016-04-04T16:25:11Z</time>
      </trkpt>
      <trkpt lat="45.23649" lon="6.47559">
        <ele>1223.9</ele>
        <time>2016-04-04T16:25:27Z</time>
      </trkpt>
      <trkpt lat="45.23644" lon="6.47558">
        <ele>1222.1</ele>
        <time>2016-04-04T16:25:31Z</time>
      </trkpt>
      <trkpt lat="45.23639" lon="6.47564">
        <ele>1222.5</ele>
        <time>2016-04-04T16:25:35Z</time>
      </trkpt>
      <trkpt lat="45.23634" lon="6.47568">
        <ele>1222.5</ele>
        <time>2016-04-04T16:25:39Z</time>
      </trkpt>
      <trkpt lat="45.23626" lon="6.47566">
        <ele>1219.4</ele>
        <time>2016-04-04T16:25:43Z</time>
      </trkpt>
      <trkpt lat="45.23621" lon="6.47602">
        <ele>1229.4</ele>
        <time>2016-04-04T16:27:15Z</time>
      </trkpt>
      <trkpt lat="45.23621" lon="6.47607">
        <ele>1231.4</ele>
        <time>2016-04-04T16:27:19Z</time>
      </trkpt>
      <trkpt lat="45.23619" lon="6.47614">
        <ele>1232.9</ele>
        <time>2016-04-04T16:27:23Z</time>
      </trkpt>
      <trkpt lat="45.23616" lon="6.47613">
        <ele>1231.7</ele>
        <time>2016-04-04T16:27:27Z</time>
      </trkpt>
      <trkpt lat="45.23596" lon="6.47614">
        <ele>1226.3</ele>
        <time>2016-04-04T16:27:47Z</time>
      </trkpt>
      <trkpt lat="45.23588" lon="6.47615">
        <ele>1224.5</ele>
        <time>2016-04-04T16:27:51Z</time>
      </trkpt>
      <trkpt lat="45.23585" lon="6.4762">
        <ele>1225.4</ele>
        <time>2016-04-04T16:27:55Z</time>
      </trkpt>
      <trkpt lat="45.23578" lon="6.47643">
        <ele>1231.3</ele>
        <time>2016-04-04T16:28:55Z</time>
      </trkpt>
      <trkpt lat="45.23574" lon="6.4765">
        <ele>1232.9</ele>
        <time>2016-04-04T16:28:59Z</time>
      </trkpt>
      <trkpt lat="45.23571" lon="6.4766">
        <ele>1235.7</ele>
        <time>2016-04-04T16:29:03Z</time>
      </trkpt>
      <trkpt lat="45.23572" lon="6.47669">
        <ele>1238.8</ele>
        <time>2016-04-04T16:29:07Z</time>
      </trkpt>
      <trkpt lat="45.23569" lon="6.47675">
        <ele>1240.2</ele>
        <time>2016-04-04T16:29:11Z</time>
      </trkpt>
      <trkpt lat="45.23561" lon="6.47687">
        <ele>1242</ele>
        <time>2016-04-04T16:29:15Z</time>
      </trkpt>
      <trkpt lat="45.23554" lon="6.4769">
        <ele>1241.4</ele>
        <time>2016-04-04T16:29:19Z</time>
      </trkpt>
      <trkpt lat="45.23545" lon="6.47693">
        <ele>1240</ele>
        <time>2016-04-04T16:29:23Z</time>
      </trkpt>
      <trkpt lat="45.23545" lon="6.47697">
        <ele>1241.5</ele>
        <time>2016-04-04T16:29:27Z</time>
      </trkpt>
      <trkpt lat="45.23502" lon="6.47725">
        <ele>1241.6</ele>
        <time>2016-04-04T16:30:15Z</time>
      </trkpt>
      <trkpt lat="45.23499" lon="6.47728">
        <ele>1241.9</ele>
        <time>2016-04-04T16:30:19Z</time>
      </trkpt>
      <trkpt lat="45.23496" lon="6.47736">
        <ele>1244.2</ele>
        <time>2016-04-04T16:30:23Z</time>
      </trkpt>
      <trkpt lat="45.2349" lon="6.47736">
        <ele>1243.6</ele>
        <time>2016-04-04T16:30:27Z</time>
      </trkpt>
      <trkpt lat="45.23489" lon="6.47741">
        <ele>1245</ele>
        <time>2016-04-04T16:30:31Z</time>
      </trkpt>
      <trkpt lat="45.23484" lon="6.47745">
        <ele>1246</ele>
        <time>2016-04-04T16:30:35Z</time>
      </trkpt>
      <trkpt lat="45.23489" lon="6.47757">
        <ele>1250.8</ele>
        <time>2016-04-04T16:30:59Z</time>
      </trkpt>
      <trkpt lat="45.2348" lon="6.47774">
        <ele>1255.1</ele>
        <time>2016-04-04T16:31:47Z</time>
      </trkpt>
      <trkpt lat="45.23472" lon="6.47776">
        <ele>1254.7</ele>
        <time>2016-04-04T16:31:55Z</time>
      </trkpt>
      <trkpt lat="45.23406" lon="6.47887">
        <ele>1279</ele>
        <time>2016-04-04T16:34:07Z</time>
      </trkpt>
      <trkpt lat="45.23402" lon="6.47899">
        <ele>1281.5</ele>
        <time>2016-04-04T16:35:03Z</time>
      </trkpt>
      <trkpt lat="45.23398" lon="6.47907">
        <ele>1283.1</ele>
        <time>2016-04-04T16:35:07Z</time>
      </trkpt>
      <trkpt lat="45.23394" lon="6.4791">
        <ele>1283.1</ele>
        <time>2016-04-04T16:35:11Z</time>
      </trkpt>
      <trkpt lat="45.23392" lon="6.47917">
        <ele>1284.6</ele>
        <time>2016-04-04T16:35:15Z</time>
      </trkpt>
      <trkpt lat="45.23388" lon="6.47923">
        <ele>1285.6</ele>
        <time>2016-04-04T16:35:19Z</time>
      </trkpt>
      <trkpt lat="45.23388" lon="6.47928">
        <ele>1286.8</ele>
        <time>2016-04-04T16:35:23Z</time>
      </trkpt>
      <trkpt lat="45.23392" lon="6.47935">
        <ele>1288.9</ele>
        <time>2016-04-04T16:35:27Z</time>
      </trkpt>
      <trkpt lat="45.23389" lon="6.47945">
        <ele>1290.9</ele>
        <time>2016-04-04T16:35:47Z</time>
      </trkpt>
      <trkpt lat="45.23385" lon="6.4795">
        <ele>1291.9</ele>
        <time>2016-04-04T16:35:51Z</time>
      </trkpt>
      <trkpt lat="45.23378" lon="6.47954">
        <ele>1292</ele>
        <time>2016-04-04T16:35:55Z</time>
      </trkpt>
      <trkpt lat="45.23374" lon="6.47954">
        <ele>1291.3</ele>
        <time>2016-04-04T16:35:59Z</time>
      </trkpt>
      <trkpt lat="45.23372" lon="6.47966">
        <ele>1294.1</ele>
        <time>2016-04-04T16:36:11Z</time>
      </trkpt>
      <trkpt lat="45.23366" lon="6.47966">
        <ele>1293.4</ele>
        <time>2016-04-04T16:36:15Z</time>
      </trkpt>
      <trkpt lat="45.23359" lon="6.4797">
        <ele>1293.3</ele>
        <time>2016-04-04T16:36:19Z</time>
      </trkpt>
      <trkpt lat="45.23356" lon="6.47973">
        <ele>1293.8</ele>
        <time>2016-04-04T16:36:23Z</time>
      </trkpt>
      <trkpt lat="45.23351" lon="6.47975">
        <ele>1293.6</ele>
        <time>2016-04-04T16:36:27Z</time>
      </trkpt>
      <trkpt lat="45.23344" lon="6.47975">
        <ele>1292.8</ele>
        <time>2016-04-04T16:36:31Z</time>
      </trkpt>
      <trkpt lat="45.23342" lon="6.47979">
        <ele>1293.5</ele>
        <time>2016-04-04T16:36:35Z</time>
      </trkpt>
      <trkpt lat="45.2334" lon="6.4798">
        <ele>1293.5</ele>
        <time>2016-04-04T16:36:39Z</time>
      </trkpt>
      <trkpt lat="45.23341" lon="6.47986">
        <ele>1295.3</ele>
        <time>2016-04-04T16:36:43Z</time>
      </trkpt>
      <trkpt lat="45.2334" lon="6.47988">
        <ele>1295.6</ele>
        <time>2016-04-04T16:36:47Z</time>
      </trkpt>
      <trkpt lat="45.23334" lon="6.48005">
        <ele>1298.5</ele>
        <time>2016-04-04T16:37:19Z</time>
      </trkpt>
      <trkpt lat="45.23337" lon="6.48009">
        <ele>1299.2</ele>
        <time>2016-04-04T16:37:23Z</time>
      </trkpt>
      <trkpt lat="45.23338" lon="6.4801">
        <ele>1299.5</ele>
        <time>2016-04-04T16:37:27Z</time>
      </trkpt>
      <trkpt lat="45.2334" lon="6.48018">
        <ele>1300.4</ele>
        <time>2016-04-04T16:37:35Z</time>
      </trkpt>
      <trkpt lat="45.23345" lon="6.48023">
        <ele>1301.7</ele>
        <time>2016-04-04T16:37:39Z</time>
      </trkpt>
      <trkpt lat="45.23347" lon="6.48033">
        <ele>1303</ele>
        <time>2016-04-04T16:37:43Z</time>
      </trkpt>
      <trkpt lat="45.23348" lon="6.48039">
        <ele>1303.8</ele>
        <time>2016-04-04T16:37:47Z</time>
      </trkpt>
      <trkpt lat="45.23348" lon="6.48041">
        <ele>1304</ele>
        <time>2016-04-04T16:37:51Z</time>
      </trkpt>
      <trkpt lat="45.23352" lon="6.48037">
        <ele>1304.1</ele>
        <time>2016-04-04T16:37:55Z</time>
      </trkpt>
      <trkpt lat="45.23357" lon="6.48042">
        <ele>1305.5</ele>
        <time>2016-04-04T16:38:03Z</time>
      </trkpt>
      <trkpt lat="45.23357" lon="6.48049">
        <ele>1306.4</ele>
        <time>2016-04-04T16:38:07Z</time>
      </trkpt>
    </trkseg>
  </trk>
</gpx>